Behrens, Klaus (2017): Meteorological synoptical observations from station Lindenberg (2015-07) [dataset]. Meteorologisches Observatorium Potsdam, PANGAEA, https://doi.org/10.1594/PANGAEA.883141
Always quote citation above when using data! You can download the citation in several formats below.
Published: 2017-11-15 • DOI registered: 2017-12-13
Other version:
Behrens, Klaus (2017): BSRN Station-to-archive file for station Lindenberg (2015-07) [dataset]. ftp://ftp.bsrn.awi.de/lin/lin0715.dat.gz
Project(s):
Coverage:
Latitude: 52.210000 * Longitude: 14.122000
Date/Time Start: 2015-07-01T00:00:00 * Date/Time End: 2015-07-31T23:00:00
Minimum Elevation: 125.0 m * Maximum Elevation: 125.0 m
Event(s):
LIN (Lindenberg) * Latitude: 52.210000 * Longitude: 14.122000 * Date/Time: 1994-09-01T00:00:00 * Elevation: 125.0 m * Location: Germany * Method/Device: Monitoring station (MONS) * Comment: BSRN station no: 12; Surface type: cultivated; Topography type: hilly, rural; Horizon: doi:10.1594/PANGAEA.669521; Station scientist: Stefan Wacker (Stefan.Wacker@dwd.de)
Parameter(s):
| # | Name | Short Name | Unit | Principal Investigator | Method/Device | Comment |
|---|---|---|---|---|---|---|
| 1 | DATE/TIME | Date/Time | Behrens, Klaus | Geocode | ||
| 2 | Total cloud amount | N | code | Behrens, Klaus | Visual observation | |
| 3 | Wind direction | dd | deg | Behrens, Klaus | Anemometer | |
| 4 | Wind speed | ff | m/s | Behrens, Klaus | Anemometer | |
| 5 | Temperature, air | TTT | °C | Behrens, Klaus | Thermometer | |
| 6 | Dew/frost point | TdTdTd | °C | Behrens, Klaus | Hygrometer (HYGRO) | |
| 7 | Station pressure | PoPoPoPo | hPa | Behrens, Klaus | Barometer (BARO) | |
| 8 | Pressure, atmospheric | PPPP | hPa | Behrens, Klaus | Barometer (BARO) | |
| 9 | Present weather | ww | code | Behrens, Klaus | Visual observation | |
| 10 | Past weather1 | W1 | code | Behrens, Klaus | Visual observation | |
| 11 | Past weather2 | W2 | code | Behrens, Klaus | Visual observation | |
| 12 | Code | Code | Behrens, Klaus | YYGG9 IIiii Nddff 1SnTTT 2SnTdTdTd 3P0P0P0 4PPPP 7wwW1W2 8NhClCmCh 333 8NsChshs 8NsChshs 8NsChshs |
License:
Size:
6489 data points
Data
| 1 Date/Time | 2 N [code] | 3 dd [deg] | 4 ff [m/s] | 5 TTT [°C] | 6 TdTdTd [°C] | 7 PoPoPoPo [hPa] | 8 PPPP [hPa] | 9 ww [code] | 10 W1 [code] | 11 W2 [code] | 12 Code |
|---|---|---|---|---|---|---|---|---|---|---|---|
| 2015-07-01T00:00 | 1 | 60 | 3 | 15.8 | 11.4 | 1011 | 1023 | 01009 10393 10603 10158 20114 30106 40230 7//// 8//// | |||
| 2015-07-01T01:00 | 0 | 60 | 2 | 15.3 | 11.1 | 1011 | 1023 | 01019 10393 00602 10153 20111 30106 40230 7//// 8//// | |||
| 2015-07-01T02:00 | 0 | 70 | 2 | 15.1 | 10.9 | 1011 | 1023 | 01029 10393 00702 10151 20109 30108 40232 7//// 8//// | |||
| 2015-07-01T03:00 | 0 | 60 | 2 | 14.4 | 10.6 | 1011 | 1023 | 01039 10393 00602 10144 20106 30109 40234 7//// 8//// | |||
| 2015-07-01T04:00 | 0 | 50 | 2 | 14.8 | 10.6 | 1011 | 1024 | 01049 10393 00502 10148 20106 30112 40236 7//// 8//// | |||
| 2015-07-01T05:00 | 0 | 70 | 3 | 15.7 | 11.2 | 1011 | 1024 | 01059 10393 00703 10157 20112 30114 40238 7//// 8//// | |||
| 2015-07-01T06:00 | 0 | 80 | 2 | 17.3 | 11.8 | 1012 | 1024 | 01069 10393 00802 10173 20118 30117 40240 7//// 8//// | |||
| 2015-07-01T07:00 | 1 | 70 | 2 | 18.9 | 11.7 | 1012 | 1024 | 01079 10393 10702 10189 20117 30118 40241 7//// 8//// | |||
| 2015-07-01T08:00 | 1 | 80 | 2 | 20.4 | 11.2 | 1012 | 1024 | 01089 10393 10802 10204 20112 30120 40242 7//// 8//// | |||
| 2015-07-01T09:00 | 1 | 120 | 2 | 21.2 | 10.7 | 1012 | 1024 | 01099 10393 11202 10212 20107 30120 40242 7//// 8//// | |||
| 2015-07-01T10:00 | 1 | 110 | 1 | 22.7 | 11.3 | 1012 | 1024 | 01109 10393 11101 10227 20113 30119 40240 7//// 8//// | |||
| 2015-07-01T11:00 | 1 | 90 | 3 | 23.6 | 10.7 | 1012 | 1024 | 01119 10393 10903 10236 20107 30116 40237 7//// 8//// | |||
| 2015-07-01T12:00 | 1 | 80 | 2 | 23.8 | 9.9 | 1011 | 1024 | 01129 10393 10802 10238 20099 30114 40235 7//// 8//// | |||
| 2015-07-01T13:00 | 2 | 70 | 1 | 24.7 | 9.0 | 1011 | 1023 | 01139 10393 20701 10247 20090 30110 40230 7//// 8//// | |||
| 2015-07-01T14:00 | 1 | 70 | 2 | 25.6 | 9.7 | 1011 | 1023 | 01149 10393 10702 10256 20097 30108 40228 7//// 8//// | |||
| 2015-07-01T15:00 | 1 | 70 | 2 | 26.3 | 11.0 | 1011 | 1023 | 01159 10393 10702 10263 20110 30106 40226 7//// 8//// | |||
| 2015-07-01T16:00 | 0 | 70 | 2 | 26.2 | 8.1 | 1010 | 1022 | 01169 10393 00702 10262 20081 30103 40223 7//// 8//// | |||
| 2015-07-01T17:00 | 0 | 80 | 2 | 26.3 | 8.9 | 1010 | 1022 | 01179 10393 00802 10263 20089 30102 40222 7//// 8//// | |||
| 2015-07-01T18:00 | 1 | 60 | 2 | 25.3 | 10.2 | 1010 | 1022 | 01189 10393 10602 10253 20102 30101 40221 7//// 8//// | |||
| 2015-07-01T19:00 | 1 | 50 | 2 | 23.0 | 10.7 | 1010 | 1023 | 01199 10393 10502 10230 20107 30105 40226 7//// 8//// | |||
| 2015-07-01T20:00 | 1 | 60 | 2 | 21.5 | 10.9 | 1011 | 1023 | 01209 10393 10602 10215 20109 30109 40231 7//// 8//// | |||
| 2015-07-01T21:00 | 1 | 90 | 3 | 21.0 | 9.4 | 1011 | 1024 | 01219 10393 10903 10210 20094 30113 40235 7//// 8//// | |||
| 2015-07-01T22:00 | 0 | 90 | 3 | 20.1 | 8.6 | 1011 | 1024 | 01229 10393 00903 10201 20086 30114 40236 7//// 8//// | |||
| 2015-07-01T23:00 | 2 | 100 | 3 | 19.8 | 8.3 | 1012 | 1024 | 01239 10393 21003 10198 20083 30118 40241 7//// 8//// | |||
| 2015-07-02T00:00 | 2 | 90 | 3 | 19.0 | 8.7 | 1012 | 1024 | 02009 10393 20903 10190 20087 30119 40242 7//// 8//// | |||
| 2015-07-02T01:00 | 1 | 90 | 4 | 18.5 | 9.0 | 1012 | 1024 | 02019 10393 10904 10185 20090 30121 40244 7//// 8//// | |||
| 2015-07-02T02:00 | 0 | 70 | 3 | 16.6 | 9.2 | 1012 | 1025 | 02029 10393 00703 10166 20092 30122 40246 7//// 8//// | |||
| 2015-07-02T03:00 | 0 | 80 | 4 | 15.9 | 9.5 | 1012 | 1025 | 02039 10393 00804 10159 20095 30122 40246 7//// 8//// | |||
| 2015-07-02T04:00 | 0 | 80 | 4 | 15.2 | 10.2 | 1013 | 1025 | 02049 10393 00804 10152 20102 30126 40251 7//// 8//// | |||
| 2015-07-02T05:00 | 0 | 90 | 3 | 16.5 | 11.7 | 1013 | 1025 | 02059 10393 00903 10165 20117 30128 40252 7//// 8//// | |||
| 2015-07-02T06:00 | 0 | 110 | 4 | 18.9 | 12.6 | 1013 | 1026 | 02069 10393 01104 10189 20126 30132 40255 7//// 8//// | |||
| 2015-07-02T07:00 | 0 | 100 | 4 | 21.3 | 12.5 | 1013 | 1026 | 02079 10393 01004 10213 20125 30133 40255 7//// 8//// | |||
| 2015-07-02T08:00 | 0 | 110 | 4 | 23.7 | 12.4 | 1013 | 1025 | 02089 10393 01104 10237 20124 30132 40253 7//// 8//// | |||
| 2015-07-02T09:00 | 0 | 120 | 4 | 25.0 | 11.8 | 1013 | 1025 | 02099 10393 01204 10250 20118 30132 40252 7//// 8//// | |||
| 2015-07-02T10:00 | 1 | 110 | 4 | 25.8 | 10.6 | 1013 | 1025 | 02109 10393 11104 10258 20106 30132 40252 7//// 8//// | |||
| 2015-07-02T11:00 | 0 | 100 | 4 | 26.5 | 9.5 | 1013 | 1025 | 02119 10393 01004 10265 20095 30130 40250 7//// 8//// | |||
| 2015-07-02T12:00 | 0 | 100 | 4 | 27.9 | 10.8 | 1013 | 1025 | 02129 10393 01004 10279 20108 30127 40246 7//// 8//// | |||
| 2015-07-02T13:00 | 0 | 120 | 4 | 27.8 | 8.8 | 1012 | 1024 | 02139 10393 01204 10278 20088 30122 40241 7//// 8//// | |||
| 2015-07-02T14:00 | 0 | 120 | 4 | 28.4 | 9.5 | 1012 | 1024 | 02149 10393 01204 10284 20095 30119 40238 7//// 8//// | |||
| 2015-07-02T15:00 | 0 | 110 | 4 | 28.5 | 9.6 | 1012 | 1024 | 02159 10393 01104 10285 20096 30117 40236 7//// 8//// | |||
| 2015-07-02T16:00 | 0 | 110 | 3 | 28.7 | 10.9 | 1012 | 1024 | 02169 10393 01103 10287 20109 30116 40235 7//// 8//// | |||
| 2015-07-02T17:00 | 0 | 90 | 3 | 28.2 | 10.2 | 1012 | 1024 | 02179 10393 00903 10282 20102 30118 40237 7//// 8//// | |||
| 2015-07-02T18:00 | 0 | 100 | 3 | 27.3 | 10.4 | 1012 | 1024 | 02189 10393 01003 10273 20104 30117 40236 7//// 8//// | |||
| 2015-07-02T19:00 | 0 | 100 | 3 | 25.0 | 9.3 | 1012 | 1024 | 02199 10393 01003 10250 20093 30117 40237 7//// 8//// | |||
| 2015-07-02T20:00 | 0 | 90 | 3 | 23.7 | 10.1 | 1012 | 1024 | 02209 10393 00903 10237 20101 30123 40244 7//// 8//// | |||
| 2015-07-02T21:00 | 0 | 100 | 3 | 22.7 | 9.8 | 1012 | 1025 | 02219 10393 01003 10227 20098 30125 40246 7//// 8//// | |||
| 2015-07-02T22:00 | 0 | 90 | 4 | 21.7 | 9.7 | 1013 | 1025 | 02229 10393 00904 10217 20097 30126 40248 7//// 8//// | |||
| 2015-07-02T23:00 | 0 | 100 | 4 | 21.1 | 9.9 | 1013 | 1025 | 02239 10393 01004 10211 20099 30126 40248 7//// 8//// | |||
| 2015-07-03T00:00 | 0 | 100 | 4 | 20.4 | 10.3 | 1012 | 1025 | 03009 10393 01004 10204 20103 30125 40247 7//// 8//// | |||
| 2015-07-03T01:00 | 0 | 110 | 3 | 20.2 | 10.5 | 1013 | 1025 | 03019 10393 01103 10202 20105 30127 40249 7//// 8//// | |||
| 2015-07-03T02:00 | 0 | 100 | 4 | 19.5 | 10.7 | 1012 | 1025 | 03029 10393 01004 10195 20107 30125 40248 7//// 8//// | |||
| 2015-07-03T03:00 | 0 | 90 | 5 | 18.5 | 10.9 | 1012 | 1025 | 03039 10393 00905 10185 20109 30124 40247 7//// 8//// | |||
| 2015-07-03T04:00 | 0 | 100 | 4 | 18.3 | 11.2 | 1013 | 1025 | 03049 10393 01004 10183 20112 30127 40250 7//// 8//// | |||
| 2015-07-03T05:00 | 0 | 110 | 4 | 19.1 | 12.1 | 1013 | 1025 | 03059 10393 01104 10191 20121 30129 40252 7//// 8//// | |||
| 2015-07-03T06:00 | 0 | 100 | 3 | 21.7 | 12.8 | 1013 | 1025 | 03069 10393 01003 10217 20128 30129 40251 7//// 8//// | |||
| 2015-07-03T07:00 | 0 | 120 | 4 | 24.6 | 12.9 | 1013 | 1025 | 03079 10393 01204 10246 20129 30130 40251 7//// 8//// | |||
| 2015-07-03T08:00 | 0 | 140 | 4 | 26.9 | 11.9 | 1013 | 1025 | 03089 10393 01404 10269 20119 30129 40249 7//// 8//// | |||
| 2015-07-03T09:00 | 0 | 130 | 4 | 28.5 | 11.4 | 1013 | 1025 | 03099 10393 01304 10285 20114 30131 40250 7//// 8//// | |||
| 2015-07-03T10:00 | 1 | 130 | 3 | 29.4 | 11.5 | 1013 | 1025 | 03109 10393 11303 10294 20115 30131 40250 7//// 8//// | |||
| 2015-07-03T11:00 | 1 | 130 | 4 | 30.7 | 11.8 | 1013 | 1025 | 03119 10393 11304 10307 20118 30128 40246 7//// 8//// | |||
| 2015-07-03T12:00 | 2 | 130 | 3 | 31.6 | 12.1 | 1012 | 1024 | 03129 10393 21303 10316 20121 30122 40240 7//// 8//// | |||
| 2015-07-03T13:00 | 2 | 140 | 3 | 31.9 | 11.1 | 1012 | 1023 | 03139 10393 21403 10319 20111 30116 40234 7//// 8//// | |||
| 2015-07-03T14:00 | 2 | 110 | 4 | 32.4 | 10.9 | 1011 | 1023 | 03149 10393 21104 10324 20109 30113 40230 7//// 8//// | |||
| 2015-07-03T15:00 | 2 | 110 | 3 | 32.3 | 10.1 | 1011 | 1023 | 03159 10393 21103 10323 20101 30110 40227 7//// 8//// | |||
| 2015-07-03T16:00 | 4 | 110 | 3 | 32.4 | 10.1 | 1011 | 1023 | 03169 10393 41103 10324 20101 30110 40227 7//// 8//// | |||
| 2015-07-03T17:00 | 5 | 100 | 3 | 31.6 | 10.7 | 1011 | 1023 | 03179 10393 51003 10316 20107 30108 40226 7//// 8//// | |||
| 2015-07-03T18:00 | 3 | 100 | 3 | 29.7 | 11.3 | 1011 | 1023 | 03189 10393 31003 10297 20113 30108 40226 7//// 8//// | |||
| 2015-07-03T19:00 | 4 | 100 | 3 | 27.8 | 10.1 | 1011 | 1023 | 03199 10393 41003 10278 20101 30110 40229 7//// 8//// | |||
| 2015-07-03T20:00 | 5 | 110 | 3 | 26.8 | 8.3 | 1011 | 1023 | 03209 10393 51103 10268 20083 30113 40233 7//// 8//// | |||
| 2015-07-03T21:00 | 7 | 110 | 4 | 26.0 | 7.9 | 1011 | 1023 | 03219 10393 71104 10260 20079 30113 40233 7//// 8//// | |||
| 2015-07-03T22:00 | 6 | 110 | 4 | 25.3 | 8.0 | 1011 | 1023 | 03229 10393 61104 10253 20080 30114 40234 7//// 8//// | |||
| 2015-07-03T23:00 | 3 | 110 | 4 | 24.6 | 8.7 | 1011 | 1023 | 03239 10393 31104 10246 20087 30112 40232 7//// 8//// | |||
| 2015-07-04T00:00 | 2 | 100 | 4 | 23.8 | 8.9 | 1011 | 1023 | 04009 10393 21004 10238 20089 30107 40228 7//// 8//// | |||
| 2015-07-04T01:00 | 2 | 110 | 3 | 23.4 | 9.4 | 1010 | 1022 | 04019 10393 21103 10234 20094 30104 40225 7//// 8//// | |||
| 2015-07-04T02:00 | 2 | 110 | 3 | 23.1 | 9.6 | 1010 | 1022 | 04029 10393 21103 10231 20096 30101 40222 7//// 8//// | |||
| 2015-07-04T03:00 | 1 | 110 | 3 | 22.8 | 10.3 | 1010 | 1022 | 04039 10393 11103 10228 20103 30097 40218 7//// 8//// | |||
| 2015-07-04T04:00 | 0 | 120 | 3 | 21.7 | 10.6 | 1010 | 1022 | 04049 10393 01203 10217 20106 30096 40217 7//// 8//// | |||
| 2015-07-04T05:00 | 0 | 130 | 3 | 22.0 | 12.1 | 1010 | 1022 | 04059 10393 01303 10220 20121 30096 40217 7//// 8//// | |||
| 2015-07-04T06:00 | 0 | 150 | 2 | 24.0 | 13.1 | 1010 | 1022 | 04069 10393 01502 10240 20131 30097 40217 7//// 8//// | |||
| 2015-07-04T07:00 | 0 | 120 | 2 | 26.3 | 14.3 | 1010 | 1022 | 04079 10393 01202 10263 20143 30096 40215 7//// 8//// | |||
| 2015-07-04T08:00 | 1 | 140 | 2 | 28.8 | 14.3 | 1009 | 1021 | 04089 10393 11402 10288 20143 30093 40211 7//// 8//// | |||
| 2015-07-04T09:00 | 1 | 110 | 3 | 31.0 | 15.8 | 1009 | 1021 | 04099 10393 11103 10310 20158 30090 40207 7//// 8//// | |||
| 2015-07-04T10:00 | 1 | 130 | 3 | 32.2 | 14.2 | 1009 | 1020 | 04109 10393 11303 10322 20142 30088 40205 7//// 8//// | |||
| 2015-07-04T11:00 | 1 | 190 | 2 | 33.4 | 14.4 | 1008 | 1020 | 04119 10393 11902 10334 20144 30085 40201 7//// 8//// | |||
| 2015-07-04T12:00 | 1 | 210 | 2 | 34.1 | 13.7 | 1008 | 1019 | 04129 10393 12102 10341 20137 30078 40194 7//// 8//// | |||
| 2015-07-04T13:00 | 2 | 290 | 1 | 34.8 | 13.9 | 1008 | 1019 | 04139 10393 22901 10348 20139 30075 40191 7//// 8//// | |||
| 2015-07-04T14:00 | 2 | 110 | 3 | 35.6 | 13.6 | 1007 | 1019 | 04149 10393 21103 10356 20136 30071 40187 7//// 8//// | |||
| 2015-07-04T15:00 | 3 | 100 | 3 | 35.9 | 13.3 | 1007 | 1018 | 04159 10393 31003 10359 20133 30066 40181 7//// 8//// | |||
| 2015-07-04T16:00 | 4 | 120 | 2 | 35.6 | 11.9 | 1006 | 1018 | 04169 10393 41202 10356 20119 30062 40177 7//// 8//// | |||
| 2015-07-04T17:00 | 7 | 100 | 2 | 34.0 | 14.3 | 1006 | 1017 | 04179 10393 71002 10340 20143 30057 40173 7//// 8//// | |||
| 2015-07-04T18:00 | 7 | 110 | 2 | 32.1 | 15.1 | 1006 | 1017 | 04189 10393 71102 10321 20151 30055 40172 7//// 8//// | |||
| 2015-07-04T19:00 | 7 | 110 | 3 | 31.2 | 14.4 | 1006 | 1017 | 04199 10393 71103 10312 20144 30055 40172 7//// 8//// | |||
| 2015-07-04T20:00 | 8 | 120 | 3 | 29.8 | 14.5 | 1006 | 1018 | 04209 10393 81203 10298 20145 30059 40177 7//// 8//// | |||
| 2015-07-04T21:00 | 8 | 120 | 4 | 28.6 | 14.5 | 1006 | 1017 | 04219 10393 81204 10286 20145 30055 40173 7//// 8//// | |||
| 2015-07-04T22:00 | 8 | 130 | 2 | 27.4 | 14.5 | 1005 | 1017 | 04229 10393 81302 10274 20145 30053 40171 7//// 8//// | |||
| 2015-07-04T23:00 | 8 | 220 | 2 | 26.0 | 15.4 | 1006 | 1018 | 13 | 2 | 2 | 04239 10393 82202 10260 20154 30060 40179 71322 8//// |
| 2015-07-05T00:00 | 8 | 300 | 4 | 24.6 | 16.4 | 1006 | 1018 | 13 | 2 | 2 | 05009 10393 83004 10246 20164 30061 40181 71322 8//// |
| 2015-07-05T01:00 | 8 | 350 | 3 | 26.3 | 14.3 | 1006 | 1018 | 13 | 2 | 2 | 05019 10393 83503 10263 20143 30057 40176 71322 8//// |
| 2015-07-05T02:00 | 7 | 330 | 2 | 26.2 | 15.1 | 1007 | 1019 | 13 | 2 | 2 | 05029 10393 73302 10262 20151 30069 40188 71322 8//// |
| 2015-07-05T03:00 | 8 | 310 | 2 | 22.7 | 18.5 | 1008 | 1020 | 95 | 8 | 2 | 05039 10393 83102 10227 20185 30077 40197 79582 8//// |
| 2015-07-05T04:00 | 8 | 50 | 4 | 23.0 | 17.1 | 1004 | 1016 | 29 | 9 | 8 | 05049 10393 80504 10230 20171 30045 40165 72998 8//// |
| 2015-07-05T05:00 | 7 | 70 | 4 | 24.4 | 16.6 | 1005 | 1017 | 05059 10393 70704 10244 20166 30047 40166 7//// 8//// | |||
| 2015-07-05T06:00 | 6 | 200 | 2 | 24.1 | 18.4 | 1005 | 1017 | 1 | 9 | 8 | 05069 10393 62002 10241 20184 30054 40173 70198 8//// |
| 2015-07-05T07:00 | 5 | 260 | 2 | 25.2 | 19.0 | 1006 | 1018 | 05079 10393 52602 10252 20190 30058 40177 7//// 8//// | |||
| 2015-07-05T08:00 | 3 | 290 | 3 | 27.2 | 18.9 | 1006 | 1018 | 05089 10393 32903 10272 20189 30057 40175 7//// 8//// | |||
| 2015-07-05T09:00 | 1 | 300 | 2 | 28.9 | 19.1 | 1005 | 1017 | 05099 10393 13002 10289 20191 30053 40171 7//// 8//// | |||
| 2015-07-05T10:00 | 1 | 300 | 1 | 31.3 | 16.5 | 1005 | 1017 | 05109 10393 13001 10313 20165 30049 40166 7//// 8//// | |||
| 2015-07-05T11:00 | 0 | 100 | 2 | 32.8 | 14.8 | 1004 | 1016 | 05119 10393 01002 10328 20148 30045 40161 7//// 8//// | |||
| 2015-07-05T12:00 | 1 | 10 | 1 | 34.1 | 15.1 | 1004 | 1016 | 05129 10393 10101 10341 20151 30039 40155 7//// 8//// | |||
| 2015-07-05T13:00 | 1 | 250 | 2 | 34.2 | 13.4 | 1003 | 1015 | 05139 10393 12502 10342 20134 30033 40149 7//// 8//// | |||
| 2015-07-05T14:00 | 1 | 200 | 2 | 35.1 | 14.2 | 1003 | 1014 | 05149 10393 12002 10351 20142 30027 40142 7//// 8//// | |||
| 2015-07-05T15:00 | 2 | 240 | 2 | 35.5 | 14.6 | 1002 | 1014 | 05159 10393 22402 10355 20146 30021 40136 7//// 8//// | |||
| 2015-07-05T16:00 | 4 | 100 | 3 | 34.7 | 15.0 | 1001 | 1013 | 05169 10393 41003 10347 20150 30013 40128 7//// 8//// | |||
| 2015-07-05T17:00 | 4 | 100 | 2 | 34.9 | 15.1 | 1000 | 1012 | 05179 10393 41002 10349 20151 30003 40118 7//// 8//// | |||
| 2015-07-05T18:00 | 5 | 90 | 3 | 32.7 | 15.3 | 1000 | 1012 | 05189 10393 50903 10327 20153 39999 40115 7//// 8//// | |||
| 2015-07-05T19:00 | 7 | 100 | 3 | 31.4 | 15.7 | 1000 | 1011 | 05199 10393 71003 10314 20157 39997 40113 7//// 8//// | |||
| 2015-07-05T20:00 | 8 | 110 | 4 | 30.6 | 16.1 | 999 | 1011 | 05209 10393 81104 10306 20161 39993 40109 7//// 8//// | |||
| 2015-07-05T21:00 | 8 | 160 | 2 | 28.3 | 17.2 | 999 | 1011 | 13 | 2 | 2 | 05219 10393 81602 10283 20172 39994 40111 71322 8//// |
| 2015-07-05T22:00 | 8 | 300 | 7 | 26.0 | 16.5 | 1001 | 1013 | 17 | 2 | 2 | 05229 10393 83007 10260 20165 30014 40132 71722 8//// |
| 2015-07-05T23:00 | 8 | 340 | 4 | 22.4 | 18.5 | 1001 | 1013 | 95 | 9 | 8 | 05239 10393 83404 10224 20185 30010 40130 79598 8//// |
| 2015-07-06T00:00 | 8 | 230 | 3 | 20.9 | 19.2 | 1003 | 1015 | 95 | 9 | 8 | 06009 10393 82303 10209 20192 30029 40149 79598 8//// |
| 2015-07-06T01:00 | 8 | 170 | 3 | 20.3 | 19.6 | 1002 | 1014 | 91 | 9 | 8 | 06019 10393 81703 10203 20196 30016 40137 79198 8//// |
| 2015-07-06T02:00 | 8 | 290 | 4 | 20.3 | 19.3 | 1002 | 1014 | 61 | 8 | 2 | 06029 10393 82904 10203 20193 30022 40143 76182 8//// |
| 2015-07-06T03:00 | 8 | 290 | 5 | 20.3 | 19.4 | 1003 | 1015 | 60 | 9 | 8 | 06039 10393 82905 10203 20194 30026 40147 76098 8//// |
| 2015-07-06T04:00 | 8 | 50 | 2 | 20.1 | 19.3 | 1001 | 1013 | 61 | 6 | 6 | 06049 10393 80502 10201 20193 30007 40127 76166 8//// |
| 2015-07-06T05:00 | 8 | 270 | 6 | 20.1 | 19.3 | 1003 | 1015 | 21 | 6 | 6 | 06059 10393 82706 10201 20193 30029 40150 72166 8//// |
| 2015-07-06T06:00 | 8 | 280 | 5 | 19.6 | 18.3 | 1004 | 1016 | 3 | 9 | 8 | 06069 10393 82805 10196 20183 30040 40161 70398 8//// |
| 2015-07-06T07:00 | 7 | 280 | 6 | 18.6 | 16.2 | 1005 | 1017 | 06079 10393 72806 10186 20162 30051 40173 7//// 8//// | |||
| 2015-07-06T08:00 | 6 | 290 | 6 | 20.0 | 16.3 | 1006 | 1018 | 06089 10393 62906 10200 20163 30057 40178 7//// 8//// | |||
| 2015-07-06T09:00 | 5 | 260 | 6 | 19.9 | 14.2 | 1007 | 1019 | 06099 10393 52606 10199 20142 30067 40189 7//// 8//// | |||
| 2015-07-06T10:00 | 4 | 270 | 6 | 21.9 | 13.8 | 1007 | 1019 | 06109 10393 42706 10219 20138 30070 40191 7//// 8//// | |||
| 2015-07-06T11:00 | 5 | 280 | 5 | 22.0 | 11.2 | 1007 | 1019 | 06119 10393 52805 10220 20112 30071 40192 7//// 8//// | |||
| 2015-07-06T12:00 | 5 | 310 | 5 | 23.3 | 11.5 | 1007 | 1019 | 06129 10393 53105 10233 20115 30070 40190 7//// 8//// | |||
| 2015-07-06T13:00 | 5 | 260 | 6 | 24.3 | 10.7 | 1007 | 1019 | 06139 10393 52606 10243 20107 30069 40189 7//// 8//// | |||
| 2015-07-06T14:00 | 4 | 300 | 5 | 24.5 | 11.4 | 1007 | 1019 | 06149 10393 43005 10245 20114 30070 40190 7//// 8//// | |||
| 2015-07-06T15:00 | 3 | 290 | 4 | 24.2 | 9.8 | 1007 | 1019 | 06159 10393 32904 10242 20098 30069 40189 7//// 8//// | |||
| 2015-07-06T16:00 | 3 | 280 | 4 | 24.6 | 9.5 | 1007 | 1019 | 06169 10393 32804 10246 20095 30066 40186 7//// 8//// | |||
| 2015-07-06T17:00 | 2 | 280 | 5 | 24.0 | 9.7 | 1006 | 1018 | 06179 10393 22805 10240 20097 30062 40182 7//// 8//// | |||
| 2015-07-06T18:00 | 1 | 290 | 4 | 23.4 | 10.1 | 1006 | 1018 | 06189 10393 12904 10234 20101 30062 40182 7//// 8//// | |||
| 2015-07-06T19:00 | 0 | 290 | 3 | 21.4 | 11.1 | 1006 | 1018 | 06199 10393 02903 10214 20111 30062 40183 7//// 8//// | |||
| 2015-07-06T20:00 | 0 | 290 | 2 | 19.2 | 11.8 | 1006 | 1019 | 06209 10393 02902 10192 20118 30065 40187 7//// 8//// | |||
| 2015-07-06T21:00 | 0 | 290 | 2 | 18.0 | 12.1 | 1006 | 1019 | 06219 10393 02902 10180 20121 30065 40187 7//// 8//// | |||
| 2015-07-06T22:00 | 0 | 300 | 2 | 17.5 | 12.0 | 1006 | 1018 | 06229 10393 03002 10175 20120 30062 40185 7//// 8//// | |||
| 2015-07-06T23:00 | 0 | 270 | 2 | 16.9 | 11.9 | 1006 | 1018 | 06239 10393 02702 10169 20119 30060 40183 7//// 8//// | |||
| 2015-07-07T00:00 | 0 | 270 | 2 | 16.5 | 11.4 | 1006 | 1018 | 07009 10393 02702 10165 20114 30058 40181 7//// 8//// | |||
| 2015-07-07T01:00 | 0 | 230 | 2 | 16.0 | 11.0 | 1006 | 1018 | 07019 10393 02302 10160 20110 30055 40178 7//// 8//// | |||
| 2015-07-07T02:00 | 0 | 210 | 2 | 15.3 | 11.0 | 1005 | 1018 | 07029 10393 02102 10153 20110 30052 40176 7//// 8//// | |||
| 2015-07-07T03:00 | 0 | 210 | 2 | 15.2 | 11.2 | 1005 | 1017 | 07039 10393 02102 10152 20112 30050 40174 7//// 8//// | |||
| 2015-07-07T04:00 | 0 | 210 | 2 | 15.8 | 10.9 | 1005 | 1017 | 07049 10393 02102 10158 20109 30048 40171 7//// 8//// | |||
| 2015-07-07T05:00 | 1 | 210 | 1 | 17.6 | 10.9 | 1005 | 1017 | 07059 10393 12101 10176 20109 30048 40170 7//// 8//// | |||
| 2015-07-07T06:00 | 0 | 160 | 1 | 20.3 | 12.6 | 1004 | 1016 | 07069 10393 01601 10203 20126 30044 40165 7//// 8//// | |||
| 2015-07-07T07:00 | 0 | 210 | 2 | 22.6 | 11.3 | 1004 | 1016 | 07079 10393 02102 10226 20113 30040 40160 7//// 8//// | |||
| 2015-07-07T08:00 | 1 | 150 | 3 | 24.0 | 11.0 | 1003 | 1015 | 07089 10393 11503 10240 20110 30033 40153 7//// 8//// | |||
| 2015-07-07T09:00 | 1 | 190 | 2 | 25.2 | 11.5 | 1003 | 1015 | 07099 10393 11902 10252 20115 30027 40146 7//// 8//// | |||
| 2015-07-07T10:00 | 1 | 210 | 4 | 26.2 | 10.0 | 1002 | 1014 | 07109 10393 12104 10262 20100 30020 40139 7//// 8//// | |||
| 2015-07-07T11:00 | 1 | 170 | 2 | 27.3 | 8.7 | 1001 | 1013 | 07119 10393 11702 10273 20087 30010 40128 7//// 8//// | |||
| 2015-07-07T12:00 | 1 | 200 | 3 | 28.7 | 8.9 | 1000 | 1012 | 07129 10393 12003 10287 20089 39999 40116 7//// 8//// | |||
| 2015-07-07T13:00 | 2 | 190 | 3 | 29.2 | 8.4 | 999 | 1011 | 07139 10393 21903 10292 20084 39990 40107 7//// 8//// | |||
| 2015-07-07T14:00 | 1 | 200 | 3 | 30.5 | 7.3 | 998 | 1010 | 07149 10393 12003 10305 20073 39979 40096 7//// 8//// | |||
| 2015-07-07T15:00 | 1 | 210 | 4 | 31.5 | 5.6 | 997 | 1008 | 07159 10393 12104 10315 20056 39968 40084 7//// 8//// | |||
| 2015-07-07T16:00 | 1 | 210 | 3 | 32.2 | 6.3 | 996 | 1007 | 07169 10393 12103 10322 20063 39957 40073 7//// 8//// | |||
| 2015-07-07T17:00 | 2 | 210 | 3 | 31.9 | 10.2 | 994 | 1006 | 07179 10393 22103 10319 20102 39942 40058 7//// 8//// | |||
| 2015-07-07T18:00 | 3 | 200 | 2 | 31.3 | 11.7 | 993 | 1005 | 07189 10393 32002 10313 20117 39931 40047 7//// 8//// | |||
| 2015-07-07T19:00 | 6 | 120 | 2 | 28.3 | 13.3 | 992 | 1004 | 17 | 1 | 1 | 07199 10393 61202 10283 20133 39921 40038 71711 8//// |
| 2015-07-07T20:00 | 8 | 350 | 3 | 23.2 | 17.2 | 991 | 1003 | 95 | 9 | 8 | 07209 10393 83503 10232 20172 39912 40030 79598 8//// |
| 2015-07-07T21:00 | 8 | 290 | 3 | 19.8 | 19.2 | 995 | 1007 | 95 | 9 | 8 | 07219 10393 82903 10198 20192 39947 40067 79598 8//// |
| 2015-07-07T22:00 | 7 | 100 | 4 | 19.1 | 18.4 | 992 | 1004 | 91 | 9 | 8 | 07229 10393 71004 10191 20184 39920 40040 79198 8//// |
| 2015-07-07T23:00 | 8 | 130 | 3 | 18.8 | 18.2 | 992 | 1004 | 25 | 8 | 8 | 07239 10393 81303 10188 20182 39915 40035 72588 8//// |
| 2015-07-08T00:00 | 7 | 220 | 4 | 19.1 | 18.5 | 992 | 1004 | 13 | 9 | 8 | 08009 10393 72204 10191 20185 39923 40043 71398 8//// |
| 2015-07-08T01:00 | 8 | 210 | 5 | 19.4 | 18.6 | 992 | 1004 | 08019 10393 82105 10194 20186 39923 40043 7//// 8//// | |||
| 2015-07-08T02:00 | 8 | 220 | 5 | 19.2 | 18.2 | 992 | 1004 | 08029 10393 82205 10192 20182 39925 40045 7//// 8//// | |||
| 2015-07-08T03:00 | 5 | 250 | 6 | 18.7 | 17.7 | 993 | 1005 | 08039 10393 52506 10187 20177 39927 40047 7//// 8//// | |||
| 2015-07-08T04:00 | 4 | 240 | 5 | 18.5 | 17.3 | 993 | 1005 | 08049 10393 42405 10185 20173 39931 40051 7//// 8//// | |||
| 2015-07-08T05:00 | 5 | 260 | 4 | 19.0 | 17.0 | 993 | 1005 | 08059 10393 52604 10190 20170 39931 40051 7//// 8//// | |||
| 2015-07-08T06:00 | 6 | 260 | 4 | 19.8 | 16.8 | 993 | 1005 | 21 | 1 | 1 | 08069 10393 62604 10198 20168 39931 40051 72111 8//// |
| 2015-07-08T07:00 | 7 | 260 | 4 | 19.7 | 16.4 | 993 | 1005 | 08079 10393 72604 10197 20164 39931 40051 7//// 8//// | |||
| 2015-07-08T08:00 | 6 | 260 | 4 | 17.4 | 15.9 | 993 | 1005 | 25 | 8 | 2 | 08089 10393 62604 10174 20159 39933 40054 72582 8//// |
| 2015-07-08T09:00 | 6 | 260 | 6 | 19.2 | 16.1 | 994 | 1006 | 3 | 8 | 2 | 08099 10393 62606 10192 20161 39935 40055 70382 8//// |
| 2015-07-08T10:00 | 5 | 260 | 6 | 19.7 | 15.4 | 994 | 1006 | 08109 10393 52606 10197 20154 39939 40059 7//// 8//// | |||
| 2015-07-08T11:00 | 6 | 260 | 7 | 19.6 | 11.8 | 994 | 1006 | 08119 10393 62607 10196 20118 39942 40062 7//// 8//// | |||
| 2015-07-08T12:00 | 6 | 240 | 9 | 21.0 | 9.8 | 994 | 1006 | 3 | 8 | 2 | 08129 10393 62409 10210 20098 39945 40065 70382 8//// |
| 2015-07-08T13:00 | 4 | 250 | 8 | 21.3 | 9.7 | 995 | 1007 | 08139 10393 42508 10213 20097 39946 40066 7//// 8//// | |||
| 2015-07-08T14:00 | 5 | 260 | 8 | 21.2 | 9.1 | 995 | 1007 | 08149 10393 52608 10212 20091 39949 40069 7//// 8//// | |||
| 2015-07-08T15:00 | 5 | 270 | 9 | 16.6 | 11.4 | 995 | 1008 | 80 | 1 | 1 | 08159 10393 52709 10166 20114 39954 40076 78011 8//// |
| 2015-07-08T16:00 | 6 | 260 | 7 | 20.7 | 8.2 | 995 | 1007 | 25 | 1 | 1 | 08169 10393 62607 10207 20082 39953 40073 72511 8//// |
| 2015-07-08T17:00 | 6 | 270 | 5 | 20.4 | 7.7 | 996 | 1008 | 08179 10393 62705 10204 20077 39958 40078 7//// 8//// | |||
| 2015-07-08T18:00 | 7 | 250 | 5 | 20.0 | 8.1 | 996 | 1008 | 3 | 8 | 1 | 08189 10393 72505 10200 20081 39958 40079 70381 8//// |
| 2015-07-08T19:00 | 7 | 240 | 6 | 19.3 | 8.2 | 996 | 1008 | 08199 10393 72406 10193 20082 39962 40083 7//// 8//// | |||
| 2015-07-08T20:00 | 7 | 230 | 4 | 18.6 | 8.9 | 996 | 1009 | 08209 10393 72304 10186 20089 39965 40086 7//// 8//// | |||
| 2015-07-08T21:00 | 6 | 240 | 4 | 17.6 | 9.9 | 997 | 1009 | 08219 10393 62404 10176 20099 39969 40091 7//// 8//// | |||
| 2015-07-08T22:00 | 7 | 250 | 6 | 17.6 | 10.2 | 997 | 1009 | 08229 10393 72506 10176 20102 39969 40091 7//// 8//// | |||
| 2015-07-08T23:00 | 5 | 240 | 7 | 16.9 | 10.6 | 997 | 1009 | 08239 10393 52407 10169 20106 39967 40089 7//// 8//// | |||
| 2015-07-09T00:00 | 0 | 250 | 6 | 15.6 | 11.5 | 997 | 1009 | 09009 10393 02506 10156 20115 39966 40088 7//// 8//// | |||
| 2015-07-09T01:00 | 2 | 250 | 5 | 14.8 | 11.8 | 997 | 1009 | 09019 10393 22505 10148 20118 39969 40092 7//// 8//// | |||
| 2015-07-09T02:00 | 7 | 250 | 4 | 15.1 | 12.0 | 997 | 1009 | 09029 10393 72504 10151 20120 39968 40091 7//// 8//// | |||
| 2015-07-09T03:00 | 6 | 250 | 6 | 14.8 | 11.9 | 997 | 1009 | 09039 10393 62506 10148 20119 39969 40092 7//// 8//// | |||
| 2015-07-09T04:00 | 2 | 250 | 4 | 14.3 | 11.7 | 997 | 1009 | 09049 10393 22504 10143 20117 39971 40094 7//// 8//// | |||
| 2015-07-09T05:00 | 8 | 240 | 5 | 14.9 | 11.6 | 997 | 1010 | 09059 10393 82405 10149 20116 39972 40095 7//// 8//// | |||
| 2015-07-09T06:00 | 8 | 250 | 4 | 13.6 | 12.4 | 997 | 1010 | 51 | 6 | 1 | 09069 10393 82504 10136 20124 39974 40097 75161 8//// |
| 2015-07-09T07:00 | 8 | 300 | 5 | 12.9 | 10.9 | 998 | 1011 | 21 | 5 | 2 | 09079 10393 83005 10129 20109 39982 40106 72152 8//// |
| 2015-07-09T08:00 | 7 | 280 | 5 | 13.4 | 10.2 | 999 | 1011 | 80 | 2 | 2 | 09089 10393 72805 10134 20102 39988 40112 78022 8//// |
| 2015-07-09T09:00 | 5 | 280 | 6 | 15.1 | 8.6 | 999 | 1012 | 25 | 8 | 6 | 09099 10393 52806 10151 20086 39993 40116 72586 8//// |
| 2015-07-09T10:00 | 6 | 270 | 8 | 16.4 | 6.3 | 1000 | 1012 | 09109 10393 62708 10164 20063 39998 40121 7//// 8//// | |||
| 2015-07-09T11:00 | 5 | 280 | 9 | 16.7 | 7.1 | 1000 | 1012 | 09119 10393 52809 10167 20071 30003 40125 7//// 8//// | |||
| 2015-07-09T12:00 | 5 | 280 | 7 | 16.5 | 5.7 | 1000 | 1013 | 25 | 8 | 6 | 09129 10393 52807 10165 20057 30005 40128 72586 8//// |
| 2015-07-09T13:00 | 7 | 290 | 8 | 15.5 | 7.1 | 1001 | 1013 | 80 | 2 | 2 | 09139 10393 72908 10155 20071 30010 40133 78022 8//// |
| 2015-07-09T14:00 | 5 | 270 | 7 | 16.5 | 6.4 | 1002 | 1014 | 25 | 2 | 2 | 09149 10393 52707 10165 20064 30017 40140 72522 8//// |
| 2015-07-09T15:00 | 4 | 270 | 7 | 16.1 | 6.8 | 1002 | 1014 | 3 | 8 | 1 | 09159 10393 42707 10161 20068 30020 40143 70381 8//// |
| 2015-07-09T16:00 | 5 | 270 | 8 | 16.4 | 7.6 | 1002 | 1015 | 09169 10393 52708 10164 20076 30024 40147 7//// 8//// | |||
| 2015-07-09T17:00 | 7 | 280 | 8 | 15.8 | 7.1 | 1003 | 1016 | 80 | 2 | 2 | 09179 10393 72808 10158 20071 30032 40155 78022 8//// |
| 2015-07-09T18:00 | 5 | 260 | 7 | 14.5 | 6.3 | 1004 | 1016 | 25 | 8 | 1 | 09189 10393 52607 10145 20063 30037 40161 72581 8//// |
| 2015-07-09T19:00 | 3 | 280 | 5 | 14.8 | 6.1 | 1004 | 1016 | 09199 10393 32805 10148 20061 30039 40163 7//// 8//// | |||
| 2015-07-09T20:00 | 4 | 290 | 6 | 14.5 | 4.0 | 1005 | 1017 | 09209 10393 42906 10145 20040 30047 40171 7//// 8//// | |||
| 2015-07-09T21:00 | 2 | 280 | 7 | 13.9 | 4.2 | 1005 | 1018 | 09219 10393 22807 10139 20042 30053 40177 7//// 8//// | |||
| 2015-07-09T22:00 | 5 | 280 | 5 | 13.4 | 5.4 | 1006 | 1018 | 09229 10393 52805 10134 20054 30057 40182 7//// 8//// | |||
| 2015-07-09T23:00 | 7 | 280 | 5 | 13.1 | 5.9 | 1006 | 1019 | 09239 10393 72805 10131 20059 30062 40187 7//// 8//// | |||
| 2015-07-10T00:00 | 3 | 280 | 6 | 12.6 | 5.7 | 1006 | 1019 | 10009 10393 32806 10126 20057 30062 40187 7//// 8//// | |||
| 2015-07-10T01:00 | 7 | 270 | 5 | 12.0 | 6.0 | 1006 | 1019 | 10019 10393 72705 10120 20060 30063 40188 7//// 8//// | |||
| 2015-07-10T02:00 | 8 | 260 | 5 | 11.6 | 6.1 | 1006 | 1019 | 10029 10393 82605 10116 20061 30063 40188 7//// 8//// | |||
| 2015-07-10T03:00 | 7 | 270 | 6 | 12.0 | 6.1 | 1006 | 1019 | 10039 10393 72706 10120 20061 30062 40187 7//// 8//// | |||
| 2015-07-10T04:00 | 7 | 260 | 5 | 11.6 | 6.6 | 1006 | 1019 | 10049 10393 72605 10116 20066 30063 40188 7//// 8//// | |||
| 2015-07-10T05:00 | 7 | 260 | 6 | 11.4 | 6.5 | 1007 | 1019 | 10059 10393 72606 10114 20065 30068 40194 7//// 8//// | |||
| 2015-07-10T06:00 | 7 | 270 | 6 | 11.5 | 6.1 | 1007 | 1019 | 10069 10393 72706 10115 20061 30067 40193 7//// 8//// | |||
| 2015-07-10T07:00 | 6 | 270 | 6 | 12.4 | 6.2 | 1007 | 1019 | 10079 10393 62706 10124 20062 30068 40193 7//// 8//// | |||
| 2015-07-10T08:00 | 5 | 290 | 7 | 14.0 | 5.2 | 1007 | 1019 | 10089 10393 52907 10140 20052 30068 40192 7//// 8//// | |||
| 2015-07-10T09:00 | 7 | 290 | 7 | 13.3 | 4.8 | 1007 | 1020 | 10099 10393 72907 10133 20048 30073 40198 7//// 8//// | |||
| 2015-07-10T10:00 | 5 | 280 | 7 | 14.0 | 5.3 | 1007 | 1020 | 10109 10393 52807 10140 20053 30073 40198 7//// 8//// | |||
| 2015-07-10T11:00 | 7 | 290 | 7 | 15.4 | 6.2 | 1007 | 1020 | 10119 10393 72907 10154 20062 30074 40198 7//// 8//// | |||
| 2015-07-10T12:00 | 6 | 280 | 6 | 16.2 | 4.9 | 1007 | 1020 | 10129 10393 62806 10162 20049 30073 40197 7//// 8//// | |||
| 2015-07-10T13:00 | 4 | 270 | 7 | 17.1 | 4.8 | 1007 | 1020 | 10139 10393 42707 10171 20048 30072 40195 7//// 8//// | |||
| 2015-07-10T14:00 | 5 | 270 | 6 | 16.6 | 5.3 | 1007 | 1020 | 10149 10393 52706 10166 20053 30073 40196 7//// 8//// | |||
| 2015-07-10T15:00 | 6 | 280 | 6 | 17.3 | 4.8 | 1007 | 1019 | 10159 10393 62806 10173 20048 30070 40193 7//// 8//// | |||
| 2015-07-10T16:00 | 6 | 270 | 5 | 17.8 | 4.9 | 1007 | 1019 | 10169 10393 62705 10178 20049 30068 40191 7//// 8//// | |||
| 2015-07-10T17:00 | 5 | 280 | 4 | 18.4 | 5.0 | 1006 | 1019 | 10179 10393 52804 10184 20050 30064 40187 7//// 8//// | |||
| 2015-07-10T18:00 | 3 | 280 | 5 | 17.6 | 4.6 | 1006 | 1019 | 10189 10393 32805 10176 20046 30065 40188 7//// 8//// | |||
| 2015-07-10T19:00 | 2 | 290 | 5 | 16.6 | 4.5 | 1007 | 1019 | 10199 10393 22905 10166 20045 30067 40190 7//// 8//// | |||
| 2015-07-10T20:00 | 0 | 290 | 4 | 14.9 | 5.2 | 1007 | 1020 | 10209 10393 02904 10149 20052 30071 40195 7//// 8//// | |||
| 2015-07-10T21:00 | 0 | 290 | 2 | 12.4 | 6.3 | 1007 | 1020 | 10219 10393 02902 10124 20063 30072 40197 7//// 8//// | |||
| 2015-07-10T22:00 | 0 | 280 | 3 | 11.6 | 6.4 | 1007 | 1020 | 10229 10393 02803 10116 20064 30072 40198 7//// 8//// | |||
| 2015-07-10T23:00 | 0 | 290 | 3 | 10.6 | 6.4 | 1007 | 1020 | 10239 10393 02903 10106 20064 30073 40199 7//// 8//// | |||
| 2015-07-11T00:00 | 0 | 280 | 3 | 10.1 | 6.6 | 1007 | 1020 | 11009 10393 02803 10101 20066 30069 40195 7//// 8//// | |||
| 2015-07-11T01:00 | 0 | 280 | 3 | 9.7 | 6.8 | 1007 | 1019 | 11019 10393 02803 10097 20068 30068 40194 7//// 8//// | |||
| 2015-07-11T02:00 | 0 | 270 | 2 | 8.5 | 6.2 | 1007 | 1019 | 11029 10393 02702 10085 20062 30066 40193 7//// 8//// | |||
| 2015-07-11T03:00 | 0 | 260 | 2 | 8.2 | 6.6 | 1006 | 1019 | 11039 10393 02602 10082 20066 30065 40192 7//// 8//// | |||
| 2015-07-11T04:00 | 3 | 290 | 2 | 8.9 | 7.1 | 1006 | 1019 | 11049 10393 32902 10089 20071 30061 40188 7//// 8//// | |||
| 2015-07-11T05:00 | 3 | 300 | 2 | 10.8 | 7.3 | 1006 | 1019 | 11059 10393 33002 10108 20073 30063 40189 7//// 8//// | |||
| 2015-07-11T06:00 | 3 | 300 | 1 | 12.6 | 9.1 | 1006 | 1019 | 11069 10393 33001 10126 20091 30063 40188 7//// 8//// | |||
| 2015-07-11T07:00 | 0 | 290 | 2 | 15.0 | 8.6 | 1006 | 1019 | 11079 10393 02902 10150 20086 30064 40188 7//// 8//// | |||
| 2015-07-11T08:00 | 2 | 280 | 3 | 16.7 | 9.0 | 1006 | 1018 | 11089 10393 22803 10167 20090 30062 40185 7//// 8//// | |||
| 2015-07-11T09:00 | 4 | 260 | 5 | 17.6 | 8.8 | 1006 | 1018 | 11099 10393 42605 10176 20088 30062 40185 7//// 8//// | |||
| 2015-07-11T10:00 | 3 | 270 | 4 | 19.0 | 8.5 | 1006 | 1018 | 11109 10393 32704 10190 20085 30057 40179 7//// 8//// | |||
| 2015-07-11T11:00 | 4 | 260 | 4 | 20.2 | 6.6 | 1005 | 1017 | 11119 10393 42604 10202 20066 30052 40174 7//// 8//// | |||
| 2015-07-11T12:00 | 6 | 290 | 3 | 20.4 | 7.4 | 1004 | 1016 | 11129 10393 62903 10204 20074 30044 40165 7//// 8//// | |||
| 2015-07-11T13:00 | 7 | 290 | 2 | 20.7 | 8.2 | 1004 | 1016 | 11139 10393 72902 10207 20082 30044 40165 7//// 8//// | |||
| 2015-07-11T14:00 | 7 | 270 | 3 | 20.8 | 7.9 | 1004 | 1016 | 11149 10393 72703 10208 20079 30043 40164 7//// 8//// | |||
| 2015-07-11T15:00 | 7 | 290 | 3 | 20.9 | 7.5 | 1004 | 1016 | 11159 10393 72903 10209 20075 30042 40163 7//// 8//// | |||
| 2015-07-11T16:00 | 7 | 300 | 3 | 21.1 | 8.8 | 1004 | 1016 | 11169 10393 73003 10211 20088 30040 40161 7//// 8//// | |||
| 2015-07-11T17:00 | 7 | 300 | 2 | 20.7 | 9.2 | 1004 | 1016 | 11179 10393 73002 10207 20092 30039 40160 7//// 8//// | |||
| 2015-07-11T18:00 | 7 | 330 | 1 | 19.3 | 11.2 | 1004 | 1016 | 11189 10393 73301 10193 20112 30039 40161 7//// 8//// | |||
| 2015-07-11T19:00 | 6 | 20 | 1 | 18.4 | 10.5 | 1004 | 1016 | 11199 10393 60201 10184 20105 30038 40160 7//// 8//// | |||
| 2015-07-11T20:00 | 6 | 30 | 2 | 17.3 | 10.0 | 1004 | 1016 | 11209 10393 60302 10173 20100 30040 40163 7//// 8//// | |||
| 2015-07-11T21:00 | 6 | 30 | 2 | 16.8 | 8.1 | 1004 | 1016 | 11219 10393 60302 10168 20081 30042 40165 7//// 8//// | |||
| 2015-07-11T22:00 | 5 | 70 | 1 | 15.5 | 7.5 | 1004 | 1016 | 11229 10393 50701 10155 20075 30042 40165 7//// 8//// | |||
| 2015-07-11T23:00 | 5 | 90 | 2 | 16.8 | 7.3 | 1004 | 1016 | 11239 10393 50902 10168 20073 30040 40163 7//// 8//// | |||
| 2015-07-12T00:00 | 5 | 110 | 2 | 15.3 | 8.2 | 1004 | 1016 | 12009 10393 51102 10153 20082 30038 40161 7//// 8//// | |||
| 2015-07-12T01:00 | 3 | 120 | 2 | 15.1 | 7.9 | 1004 | 1016 | 12019 10393 31202 10151 20079 30035 40159 7//// 8//// | |||
| 2015-07-12T02:00 | 3 | 150 | 2 | 13.6 | 8.9 | 1003 | 1016 | 12029 10393 31502 10136 20089 30034 40158 7//// 8//// | |||
| 2015-07-12T03:00 | 7 | 160 | 1 | 14.8 | 8.2 | 1003 | 1016 | 12039 10393 71601 10148 20082 30032 40156 7//// 8//// | |||
| 2015-07-12T04:00 | 7 | 150 | 2 | 15.4 | 8.9 | 1003 | 1015 | 12049 10393 71502 10154 20089 30030 40153 7//// 8//// | |||
| 2015-07-12T05:00 | 7 | 160 | 2 | 16.4 | 10.7 | 1003 | 1015 | 12059 10393 71602 10164 20107 30028 40151 7//// 8//// | |||
| 2015-07-12T06:00 | 6 | 180 | 1 | 18.1 | 11.6 | 1003 | 1015 | 12069 10393 61801 10181 20116 30029 40151 7//// 8//// | |||
| 2015-07-12T07:00 | 7 | 210 | 2 | 19.2 | 10.8 | 1003 | 1015 | 12079 10393 72102 10192 20108 30028 40150 7//// 8//// | |||
| 2015-07-12T08:00 | 7 | 200 | 2 | 20.5 | 11.1 | 1002 | 1015 | 12089 10393 72002 10205 20111 30025 40146 7//// 8//// | |||
| 2015-07-12T09:00 | 8 | 220 | 2 | 22.2 | 10.2 | 1002 | 1014 | 12099 10393 82202 10222 20102 30025 40145 7//// 8//// | |||
| 2015-07-12T10:00 | 7 | 230 | 2 | 23.9 | 10.7 | 1002 | 1014 | 12109 10393 72302 10239 20107 30021 40141 7//// 8//// | |||
| 2015-07-12T11:00 | 7 | 250 | 3 | 25.1 | 11.1 | 1002 | 1014 | 12119 10393 72503 10251 20111 30017 40136 7//// 8//// | |||
| 2015-07-12T12:00 | 8 | 230 | 2 | 25.0 | 10.8 | 1001 | 1013 | 12129 10393 82302 10250 20108 30012 40131 7//// 8//// | |||
| 2015-07-12T13:00 | 8 | 290 | 4 | 24.0 | 12.1 | 1001 | 1013 | 12139 10393 82904 10240 20121 30011 40130 7//// 8//// | |||
| 2015-07-12T14:00 | 8 | 300 | 6 | 20.8 | 14.4 | 1002 | 1014 | 21 | 6 | 2 | 12149 10393 83006 10208 20144 30019 40140 72162 8//// |
| 2015-07-12T15:00 | 8 | 300 | 4 | 19.2 | 13.5 | 1002 | 1015 | 21 | 6 | 2 | 12159 10393 83004 10192 20135 30025 40146 72162 8//// |
| 2015-07-12T16:00 | 8 | 300 | 5 | 19.0 | 13.2 | 1003 | 1015 | 60 | 2 | 2 | 12169 10393 83005 10190 20132 30028 40150 76022 8//// |
| 2015-07-12T17:00 | 8 | 290 | 3 | 17.5 | 14.4 | 1003 | 1015 | 61 | 6 | 6 | 12179 10393 82903 10175 20144 30028 40150 76166 8//// |
| 2015-07-12T18:00 | 8 | 260 | 2 | 16.7 | 15.1 | 1002 | 1015 | 61 | 6 | 2 | 12189 10393 82602 10167 20151 30025 40147 76162 8//// |
| 2015-07-12T19:00 | 8 | 240 | 4 | 16.2 | 15.3 | 1003 | 1015 | 61 | 6 | 6 | 12199 10393 82404 10162 20153 30026 40149 76166 8//// |
| 2015-07-12T20:00 | 8 | 250 | 4 | 15.3 | 14.5 | 1003 | 1015 | 61 | 6 | 6 | 12209 10393 82504 10153 20145 30028 40151 76166 8//// |
| 2015-07-12T21:00 | 8 | 250 | 4 | 15.5 | 14.9 | 1003 | 1015 | 61 | 6 | 6 | 12219 10393 82504 10155 20149 30027 40150 76166 8//// |
| 2015-07-12T22:00 | 8 | 270 | 6 | 15.3 | 14.6 | 1002 | 1015 | 61 | 6 | 6 | 12229 10393 82706 10153 20146 30025 40148 76166 8//// |
| 2015-07-12T23:00 | 8 | 260 | 4 | 15.1 | 14.6 | 1002 | 1015 | 61 | 6 | 6 | 12239 10393 82604 10151 20146 30023 40146 76166 8//// |
| 2015-07-13T00:00 | 8 | 260 | 5 | 14.9 | 14.3 | 1002 | 1014 | 61 | 6 | 6 | 13009 10393 82605 10149 20143 30018 40141 76166 8//// |
| 2015-07-13T01:00 | 8 | 270 | 5 | 14.7 | 14.1 | 1002 | 1014 | 61 | 6 | 6 | 13019 10393 82705 10147 20141 30015 40138 76166 8//// |
| 2015-07-13T02:00 | 8 | 270 | 4 | 14.7 | 14.1 | 1001 | 1014 | 60 | 6 | 6 | 13029 10393 82704 10147 20141 30014 40137 76066 8//// |
| 2015-07-13T03:00 | 8 | 270 | 4 | 14.7 | 14.2 | 1002 | 1014 | 61 | 6 | 2 | 13039 10393 82704 10147 20142 30015 40138 76162 8//// |
| 2015-07-13T04:00 | 8 | 270 | 4 | 14.7 | 14.2 | 1002 | 1014 | 21 | 2 | 2 | 13049 10393 82704 10147 20142 30016 40139 72122 8//// |
| 2015-07-13T05:00 | 8 | 270 | 4 | 14.6 | 14.3 | 1002 | 1014 | 10 | 2 | 2 | 13059 10393 82704 10146 20143 30017 40140 71022 8//// |
| 2015-07-13T06:00 | 8 | 260 | 4 | 14.9 | 14.5 | 1002 | 1014 | 51 | 6 | 2 | 13069 10393 82604 10149 20145 30019 40142 75162 8//// |
| 2015-07-13T07:00 | 8 | 270 | 4 | 15.4 | 14.8 | 1002 | 1014 | 20 | 2 | 2 | 13079 10393 82704 10154 20148 30019 40142 72022 8//// |
| 2015-07-13T08:00 | 8 | 260 | 4 | 15.7 | 14.8 | 1002 | 1014 | 51 | 2 | 2 | 13089 10393 82604 10157 20148 30022 40145 75122 8//// |
| 2015-07-13T09:00 | 7 | 260 | 5 | 17.6 | 15.3 | 1002 | 1014 | 21 | 5 | 2 | 13099 10393 72605 10176 20153 30022 40144 72152 8//// |
| 2015-07-13T10:00 | 7 | 260 | 4 | 18.1 | 15.1 | 1002 | 1014 | 80 | 5 | 2 | 13109 10393 72604 10181 20151 30020 40142 78052 8//// |
| 2015-07-13T11:00 | 8 | 260 | 5 | 18.8 | 14.3 | 1002 | 1014 | 25 | 2 | 2 | 13119 10393 82605 10188 20143 30017 40138 72522 8//// |
| 2015-07-13T12:00 | 6 | 250 | 6 | 18.9 | 16.1 | 1002 | 1014 | 25 | 8 | 6 | 13129 10393 62506 10189 20161 30015 40136 72586 8//// |
| 2015-07-13T13:00 | 6 | 250 | 5 | 19.7 | 15.8 | 1001 | 1013 | 25 | 2 | 2 | 13139 10393 62505 10197 20158 30011 40132 72522 8//// |
| 2015-07-13T14:00 | 8 | 270 | 4 | 18.9 | 15.3 | 1001 | 1013 | 82 | 2 | 2 | 13149 10393 82704 10189 20153 30012 40133 78222 8//// |
| 2015-07-13T15:00 | 8 | 250 | 4 | 18.6 | 16.5 | 1001 | 1013 | 80 | 8 | 2 | 13159 10393 82504 10186 20165 30013 40134 78082 8//// |
| 2015-07-13T16:00 | 8 | 260 | 4 | 18.7 | 15.3 | 1001 | 1013 | 80 | 2 | 2 | 13169 10393 82604 10187 20153 30012 40133 78022 8//// |
| 2015-07-13T17:00 | 8 | 310 | 3 | 16.7 | 15.5 | 1001 | 1013 | 80 | 8 | 8 | 13179 10393 83103 10167 20155 30012 40134 78088 8//// |
| 2015-07-13T18:00 | 8 | 290 | 3 | 16.5 | 15.3 | 1001 | 1014 | 25 | 8 | 2 | 13189 10393 82903 10165 20153 30013 40135 72582 8//// |
| 2015-07-13T19:00 | 8 | 240 | 2 | 16.6 | 15.7 | 1001 | 1014 | 21 | 2 | 2 | 13199 10393 82402 10166 20157 30013 40135 72122 8//// |
| 2015-07-13T20:00 | 8 | 250 | 4 | 16.2 | 15.0 | 1001 | 1014 | 61 | 6 | 2 | 13209 10393 82504 10162 20150 30014 40136 76162 8//// |
| 2015-07-13T21:00 | 8 | 250 | 4 | 15.7 | 14.9 | 1002 | 1014 | 61 | 6 | 2 | 13219 10393 82504 10157 20149 30015 40138 76162 8//// |
| 2015-07-13T22:00 | 8 | 240 | 3 | 15.6 | 15.0 | 1001 | 1014 | 21 | 6 | 6 | 13229 10393 82403 10156 20150 30014 40137 72166 8//// |
| 2015-07-13T23:00 | 8 | 240 | 3 | 15.6 | 15.1 | 1001 | 1013 | 13239 10393 82403 10156 20151 30010 40133 7//// 8//// | |||
| 2015-07-14T00:00 | 8 | 250 | 2 | 15.6 | 15.1 | 1001 | 1013 | 21 | 6 | 2 | 14009 10393 82502 10156 20151 30006 40129 72162 8//// |
| 2015-07-14T01:00 | 8 | 270 | 2 | 15.6 | 15.1 | 1000 | 1013 | 21 | 6 | 2 | 14019 10393 82702 10156 20151 30005 40128 72162 8//// |
| 2015-07-14T02:00 | 8 | 280 | 2 | 15.4 | 15.0 | 1000 | 1012 | 61 | 6 | 2 | 14029 10393 82802 10154 20150 30002 40125 76162 8//// |
| 2015-07-14T03:00 | 8 | 300 | 2 | 15.1 | 14.4 | 1000 | 1013 | 21 | 6 | 2 | 14039 10393 83002 10151 20144 30004 40127 72162 8//// |
| 2015-07-14T04:00 | 7 | 310 | 1 | 14.9 | 14.2 | 1000 | 1013 | 21 | 2 | 2 | 14049 10393 73101 10149 20142 30005 40128 72122 8//// |
| 2015-07-14T05:00 | 5 | 280 | 2 | 15.1 | 14.2 | 1001 | 1013 | 14059 10393 52802 10151 20142 30007 40130 7//// 8//// | |||
| 2015-07-14T06:00 | 6 | 260 | 3 | 16.6 | 14.8 | 1001 | 1013 | 3 | 6 | 1 | 14069 10393 62603 10166 20148 30008 40130 70361 8//// |
| 2015-07-14T07:00 | 7 | 250 | 2 | 17.2 | 14.6 | 1001 | 1013 | 14079 10393 72502 10172 20146 30009 40131 7//// 8//// | |||
| 2015-07-14T08:00 | 7 | 240 | 3 | 17.5 | 15.1 | 1001 | 1013 | 21 | 6 | 2 | 14089 10393 72403 10175 20151 30008 40130 72162 8//// |
| 2015-07-14T09:00 | 8 | 230 | 4 | 17.1 | 15.0 | 1001 | 1013 | 58 | 6 | 2 | 14099 10393 82304 10171 20150 30006 40128 75862 8//// |
| 2015-07-14T10:00 | 8 | 240 | 1 | 16.2 | 15.1 | 1001 | 1013 | 51 | 6 | 6 | 14109 10393 82401 10162 20151 30007 40129 75166 8//// |
| 2015-07-14T11:00 | 8 | 160 | 1 | 17.3 | 16.3 | 1000 | 1013 | 51 | 5 | 5 | 14119 10393 81601 10173 20163 30004 40126 75155 8//// |
| 2015-07-14T12:00 | 8 | 240 | 2 | 18.3 | 16.6 | 1000 | 1012 | 21 | 6 | 5 | 14129 10393 82402 10183 20166 30001 40122 72165 8//// |
| 2015-07-14T13:00 | 7 | 260 | 3 | 20.2 | 17.1 | 1000 | 1012 | 25 | 2 | 2 | 14139 10393 72603 10202 20171 39998 40118 72522 8//// |
| 2015-07-14T14:00 | 7 | 270 | 4 | 21.1 | 16.9 | 1000 | 1012 | 14149 10393 72704 10211 20169 39995 40115 7//// 8//// | |||
| 2015-07-14T15:00 | 8 | 300 | 4 | 17.8 | 17.1 | 1000 | 1012 | 80 | 8 | 2 | 14159 10393 83004 10178 20171 30000 40122 78082 8//// |
| 2015-07-14T16:00 | 8 | 300 | 3 | 18.7 | 17.6 | 1000 | 1012 | 25 | 2 | 2 | 14169 10393 83003 10187 20176 30003 40124 72522 8//// |
| 2015-07-14T17:00 | 8 | 330 | 1 | 17.8 | 17.0 | 1001 | 1013 | 81 | 8 | 2 | 14179 10393 83301 10178 20170 30008 40130 78182 8//// |
| 2015-07-14T18:00 | 7 | 300 | 1 | 17.6 | 16.6 | 1001 | 1013 | 25 | 8 | 2 | 14189 10393 73001 10176 20166 30009 40131 72582 8//// |
| 2015-07-14T19:00 | 6 | 310 | 1 | 17.4 | 16.7 | 1001 | 1014 | 14199 10393 63101 10174 20167 30014 40136 7//// 8//// | |||
| 2015-07-14T20:00 | 7 | 300 | 1 | 16.6 | 16.1 | 1002 | 1014 | 14209 10393 73001 10166 20161 30021 40143 7//// 8//// | |||
| 2015-07-14T21:00 | 6 | 280 | 2 | 16.2 | 15.8 | 1002 | 1015 | 14219 10393 62802 10162 20158 30024 40147 7//// 8//// | |||
| 2015-07-14T22:00 | 9 | 310 | 2 | 16.4 | 16.1 | 1003 | 1015 | 47 | 2 | 2 | 14229 10393 93102 10164 20161 30028 40150 74722 8//// |
| 2015-07-14T23:00 | 9 | 310 | 1 | 16.4 | 16.2 | 1003 | 1015 | 43 | 4 | 2 | 14239 10393 93101 10164 20162 30030 40153 74342 8//// |
| 2015-07-15T00:00 | 9 | 310 | 2 | 16.6 | 16.3 | 1003 | 1015 | 45 | 4 | 2 | 15009 10393 93102 10166 20163 30031 40153 74542 8//// |
| 2015-07-15T01:00 | 9 | 310 | 2 | 16.3 | 16.0 | 1003 | 1016 | 43 | 4 | 4 | 15019 10393 93102 10163 20160 30033 40156 74344 8//// |
| 2015-07-15T02:00 | 9 | 240 | 1 | 15.9 | 15.7 | 1004 | 1016 | 47 | 4 | 4 | 15029 10393 92401 10159 20157 30035 40158 74744 8//// |
| 2015-07-15T03:00 | 9 | 270 | 2 | 15.7 | 15.5 | 1004 | 1016 | 47 | 4 | 4 | 15039 10393 92702 10157 20155 30040 40163 74744 8//// |
| 2015-07-15T04:00 | 9 | 260 | 3 | 15.5 | 15.4 | 1004 | 1017 | 43 | 4 | 4 | 15049 10393 92603 10155 20154 30043 40166 74344 8//// |
| 2015-07-15T05:00 | 7 | 290 | 4 | 15.7 | 15.4 | 1004 | 1017 | 28 | 2 | 2 | 15059 10393 72904 10157 20154 30045 40168 72822 8//// |
| 2015-07-15T06:00 | 7 | 280 | 4 | 15.3 | 14.7 | 1005 | 1017 | 10 | 4 | 2 | 15069 10393 72804 10153 20147 30051 40174 71042 8//// |
| 2015-07-15T07:00 | 6 | 280 | 4 | 15.7 | 14.3 | 1006 | 1018 | 15079 10393 62804 10157 20143 30056 40179 7//// 8//// | |||
| 2015-07-15T08:00 | 3 | 300 | 2 | 16.9 | 13.4 | 1006 | 1018 | 15089 10393 33002 10169 20134 30059 40182 7//// 8//// | |||
| 2015-07-15T09:00 | 4 | 280 | 4 | 18.2 | 12.6 | 1006 | 1019 | 15099 10393 42804 10182 20126 30064 40186 7//// 8//// | |||
| 2015-07-15T10:00 | 4 | 270 | 5 | 19.4 | 11.7 | 1007 | 1019 | 15109 10393 42705 10194 20117 30066 40188 7//// 8//// | |||
| 2015-07-15T11:00 | 6 | 280 | 5 | 19.2 | 11.2 | 1007 | 1019 | 15119 10393 62805 10192 20112 30067 40189 7//// 8//// | |||
| 2015-07-15T12:00 | 5 | 300 | 4 | 20.5 | 11.6 | 1007 | 1019 | 15129 10393 53004 10205 20116 30066 40187 7//// 8//// | |||
| 2015-07-15T13:00 | 5 | 290 | 4 | 20.4 | 11.0 | 1007 | 1019 | 15139 10393 52904 10204 20110 30067 40189 7//// 8//// | |||
| 2015-07-15T14:00 | 3 | 280 | 4 | 20.9 | 9.7 | 1006 | 1018 | 15149 10393 32804 10209 20097 30064 40185 7//// 8//// | |||
| 2015-07-15T15:00 | 5 | 270 | 5 | 21.1 | 10.0 | 1006 | 1018 | 15159 10393 52705 10211 20100 30064 40185 7//// 8//// | |||
| 2015-07-15T16:00 | 3 | 300 | 3 | 22.0 | 10.5 | 1006 | 1018 | 15169 10393 33003 10220 20105 30061 40182 7//// 8//// | |||
| 2015-07-15T17:00 | 3 | 290 | 3 | 22.0 | 10.2 | 1006 | 1018 | 15179 10393 32903 10220 20102 30058 40179 7//// 8//// | |||
| 2015-07-15T18:00 | 5 | 270 | 3 | 21.3 | 11.5 | 1006 | 1018 | 15189 10393 52703 10213 20115 30057 40178 7//// 8//// | |||
| 2015-07-15T19:00 | 5 | 260 | 2 | 18.9 | 11.9 | 1006 | 1018 | 15199 10393 52602 10189 20119 30056 40178 7//// 8//// | |||
| 2015-07-15T20:00 | 4 | 300 | 2 | 17.0 | 11.6 | 1006 | 1018 | 15209 10393 43002 10170 20116 30061 40184 7//// 8//// | |||
| 2015-07-15T21:00 | 1 | 310 | 1 | 16.0 | 11.5 | 1006 | 1018 | 15219 10393 13101 10160 20115 30060 40183 7//// 8//// | |||
| 2015-07-15T22:00 | 0 | 220 | 1 | 15.1 | 11.7 | 1006 | 1018 | 15229 10393 02201 10151 20117 30061 40185 7//// 8//// | |||
| 2015-07-15T23:00 | 8 | 160 | 2 | 16.7 | 12.6 | 1006 | 1018 | 15239 10393 81602 10167 20126 30060 40183 7//// 8//// | |||
| 2015-07-16T00:00 | 8 | 180 | 2 | 16.9 | 12.1 | 1006 | 1018 | 16009 10393 81802 10169 20121 30061 40184 7//// 8//// | |||
| 2015-07-16T01:00 | 7 | 80 | 3 | 16.0 | 11.9 | 1006 | 1018 | 16019 10393 70803 10160 20119 30056 40179 7//// 8//// | |||
| 2015-07-16T02:00 | 7 | 90 | 3 | 16.0 | 11.7 | 1005 | 1018 | 60 | 2 | 2 | 16029 10393 70903 10160 20117 30054 40177 76022 8//// |
| 2015-07-16T03:00 | 8 | 110 | 2 | 16.3 | 11.9 | 1006 | 1018 | 60 | 6 | 2 | 16039 10393 81102 10163 20119 30055 40178 76062 8//// |
| 2015-07-16T04:00 | 8 | 250 | 1 | 14.5 | 13.5 | 1006 | 1018 | 63 | 6 | 6 | 16049 10393 82501 10145 20135 30060 40184 76366 8//// |
| 2015-07-16T05:00 | 7 | 90 | 3 | 14.7 | 13.7 | 1005 | 1018 | 61 | 6 | 6 | 16059 10393 70903 10147 20137 30054 40178 76166 8//// |
| 2015-07-16T06:00 | 7 | 100 | 3 | 15.2 | 14.3 | 1005 | 1018 | 21 | 6 | 2 | 16069 10393 71003 10152 20143 30054 40177 72162 8//// |
| 2015-07-16T07:00 | 3 | 120 | 3 | 17.9 | 15.3 | 1005 | 1018 | 16079 10393 31203 10179 20153 30054 40176 7//// 8//// | |||
| 2015-07-16T08:00 | 1 | 150 | 1 | 19.8 | 15.7 | 1006 | 1018 | 16089 10393 11501 10198 20157 30057 40178 7//// 8//// | |||
| 2015-07-16T09:00 | 5 | 280 | 2 | 21.6 | 15.6 | 1006 | 1018 | 16099 10393 52802 10216 20156 30058 40179 7//// 8//// | |||
| 2015-07-16T10:00 | 3 | 280 | 2 | 22.5 | 16.4 | 1006 | 1018 | 16109 10393 32802 10225 20164 30059 40179 7//// 8//// | |||
| 2015-07-16T11:00 | 6 | 280 | 2 | 23.0 | 15.7 | 1006 | 1018 | 16119 10393 62802 10230 20157 30058 40178 7//// 8//// | |||
| 2015-07-16T12:00 | 5 | 300 | 2 | 23.7 | 15.9 | 1006 | 1018 | 16129 10393 53002 10237 20159 30055 40175 7//// 8//// | |||
| 2015-07-16T13:00 | 5 | 280 | 4 | 24.3 | 15.5 | 1005 | 1017 | 16139 10393 52804 10243 20155 30054 40174 7//// 8//// | |||
| 2015-07-16T14:00 | 5 | 300 | 4 | 24.4 | 15.3 | 1005 | 1017 | 16149 10393 53004 10244 20153 30053 40173 7//// 8//// | |||
| 2015-07-16T15:00 | 6 | 300 | 4 | 25.1 | 14.3 | 1005 | 1017 | 16159 10393 63004 10251 20143 30051 40170 7//// 8//// | |||
| 2015-07-16T16:00 | 3 | 300 | 4 | 26.0 | 13.8 | 1005 | 1017 | 16169 10393 33004 10260 20138 30050 40169 7//// 8//// | |||
| 2015-07-16T17:00 | 3 | 290 | 3 | 25.3 | 13.0 | 1005 | 1017 | 16179 10393 32903 10253 20130 30047 40166 7//// 8//// | |||
| 2015-07-16T18:00 | 1 | 300 | 2 | 24.4 | 12.9 | 1005 | 1017 | 16189 10393 13002 10244 20129 30046 40166 7//// 8//// | |||
| 2015-07-16T19:00 | 0 | 300 | 1 | 21.4 | 13.8 | 1004 | 1017 | 16199 10393 03001 10214 20138 30045 40166 7//// 8//// | |||
| 2015-07-16T20:00 | 1 | 360 | 1 | 20.2 | 13.6 | 1005 | 1017 | 16209 10393 13601 10202 20136 30049 40170 7//// 8//// | |||
| 2015-07-16T21:00 | 2 | 60 | 2 | 21.0 | 13.7 | 1005 | 1017 | 16219 10393 20602 10210 20137 30047 40168 7//// 8//// | |||
| 2015-07-16T22:00 | 0 | 80 | 3 | 20.4 | 13.4 | 1005 | 1017 | 16229 10393 00803 10204 20134 30048 40169 7//// 8//// | |||
| 2015-07-16T23:00 | 0 | 80 | 3 | 19.4 | 13.4 | 1005 | 1017 | 16239 10393 00803 10194 20134 30047 40169 7//// 8//// | |||
| 2015-07-17T00:00 | 0 | 80 | 3 | 18.9 | 13.8 | 1004 | 1017 | 17009 10393 00803 10189 20138 30045 40167 7//// 8//// | |||
| 2015-07-17T01:00 | 0 | 80 | 3 | 16.7 | 13.9 | 1004 | 1017 | 17019 10393 00803 10167 20139 30043 40166 7//// 8//// | |||
| 2015-07-17T02:00 | 0 | 90 | 3 | 16.7 | 14.0 | 1004 | 1016 | 17029 10393 00903 10167 20140 30040 40163 7//// 8//// | |||
| 2015-07-17T03:00 | 1 | 80 | 3 | 15.8 | 14.2 | 1004 | 1016 | 17039 10393 10803 10158 20142 30038 40161 7//// 8//// | |||
| 2015-07-17T04:00 | 4 | 80 | 3 | 15.9 | 14.2 | 1004 | 1016 | 17049 10393 40803 10159 20142 30038 40161 7//// 8//// | |||
| 2015-07-17T05:00 | 5 | 70 | 3 | 17.7 | 14.7 | 1004 | 1016 | 17059 10393 50703 10177 20147 30037 40159 7//// 8//// | |||
| 2015-07-17T06:00 | 4 | 90 | 2 | 18.7 | 15.3 | 1004 | 1016 | 17069 10393 40902 10187 20153 30037 40159 7//// 8//// | |||
| 2015-07-17T07:00 | 1 | 110 | 2 | 21.6 | 16.0 | 1004 | 1016 | 17079 10393 11102 10216 20160 30035 40155 7//// 8//// | |||
| 2015-07-17T08:00 | 1 | 110 | 2 | 23.8 | 15.6 | 1003 | 1015 | 17089 10393 11102 10238 20156 30033 40153 7//// 8//// | |||
| 2015-07-17T09:00 | 2 | 50 | 1 | 25.8 | 15.6 | 1003 | 1015 | 17099 10393 20501 10258 20156 30033 40152 7//// 8//// | |||
| 2015-07-17T10:00 | 4 | 150 | 1 | 27.5 | 15.4 | 1003 | 1015 | 17109 10393 41501 10275 20154 30031 40149 7//// 8//// | |||
| 2015-07-17T11:00 | 7 | 220 | 2 | 27.4 | 16.3 | 1003 | 1015 | 17119 10393 72202 10274 20163 30031 40149 7//// 8//// | |||
| 2015-07-17T12:00 | 7 | 210 | 2 | 28.1 | 16.9 | 1002 | 1014 | 17129 10393 72102 10281 20169 30025 40143 7//// 8//// | |||
| 2015-07-17T13:00 | 7 | 210 | 3 | 28.1 | 16.6 | 1002 | 1014 | 17139 10393 72103 10281 20166 30021 40139 7//// 8//// | |||
| 2015-07-17T14:00 | 7 | 210 | 3 | 28.8 | 17.1 | 1002 | 1014 | 17149 10393 72103 10288 20171 30018 40135 7//// 8//// | |||
| 2015-07-17T15:00 | 6 | 200 | 2 | 29.4 | 16.0 | 1001 | 1013 | 17159 10393 62002 10294 20160 30012 40129 7//// 8//// | |||
| 2015-07-17T16:00 | 3 | 150 | 2 | 30.3 | 16.3 | 1000 | 1012 | 17169 10393 31502 10303 20163 30004 40121 7//// 8//// | |||
| 2015-07-17T17:00 | 3 | 200 | 2 | 30.9 | 16.0 | 1000 | 1011 | 17179 10393 32002 10309 20160 39998 40114 7//// 8//// | |||
| 2015-07-17T18:00 | 1 | 150 | 1 | 30.1 | 17.0 | 1000 | 1012 | 17189 10393 11501 10301 20170 39998 40115 7//// 8//// | |||
| 2015-07-17T19:00 | 1 | 130 | 2 | 27.4 | 16.2 | 1000 | 1012 | 17199 10393 11302 10274 20162 39997 40115 7//// 8//// | |||
| 2015-07-17T20:00 | 3 | 120 | 3 | 26.1 | 17.3 | 1000 | 1012 | 17209 10393 31203 10261 20173 30003 40121 7//// 8//// | |||
| 2015-07-17T21:00 | 5 | 140 | 2 | 25.3 | 18.1 | 1001 | 1012 | 17219 10393 51402 10253 20181 30007 40125 7//// 8//// | |||
| 2015-07-17T22:00 | 4 | 150 | 2 | 24.5 | 18.0 | 1001 | 1013 | 17229 10393 41502 10245 20180 30007 40126 7//// 8//// | |||
| 2015-07-17T23:00 | 2 | 170 | 3 | 24.4 | 17.9 | 1000 | 1012 | 17239 10393 21703 10244 20179 30003 40122 7//// 8//// | |||
| 2015-07-18T00:00 | 3 | 150 | 3 | 23.3 | 17.9 | 1000 | 1012 | 18009 10393 31503 10233 20179 30000 40119 7//// 8//// | |||
| 2015-07-18T01:00 | 0 | 200 | 3 | 22.5 | 17.5 | 1000 | 1012 | 18019 10393 02003 10225 20175 39997 40117 7//// 8//// | |||
| 2015-07-18T02:00 | 2 | 190 | 2 | 21.9 | 16.6 | 1000 | 1012 | 18029 10393 21902 10219 20166 39997 40117 7//// 8//// | |||
| 2015-07-18T03:00 | 1 | 150 | 2 | 21.7 | 17.5 | 1000 | 1012 | 18039 10393 11502 10217 20175 39995 40115 7//// 8//// | |||
| 2015-07-18T04:00 | 6 | 170 | 2 | 21.1 | 17.3 | 1000 | 1012 | 18049 10393 61702 10211 20173 39995 40115 7//// 8//// | |||
| 2015-07-18T05:00 | 6 | 230 | 3 | 21.4 | 17.1 | 999 | 1011 | 18059 10393 62303 10214 20171 39993 40113 7//// 8//// | |||
| 2015-07-18T06:00 | 3 | 290 | 3 | 22.0 | 17.2 | 999 | 1011 | 18069 10393 32903 10220 20172 39992 40112 7//// 8//// | |||
| 2015-07-18T07:00 | 6 | 230 | 3 | 24.0 | 17.3 | 1000 | 1012 | 18079 10393 62303 10240 20173 39999 40118 7//// 8//// | |||
| 2015-07-18T08:00 | 6 | 290 | 5 | 24.5 | 18.7 | 1001 | 1013 | 18089 10393 62905 10245 20187 30007 40126 7//// 8//// | |||
| 2015-07-18T09:00 | 4 | 290 | 5 | 24.9 | 17.9 | 1001 | 1013 | 18099 10393 42905 10249 20179 30010 40129 7//// 8//// | |||
| 2015-07-18T10:00 | 3 | 300 | 4 | 26.2 | 17.2 | 1002 | 1013 | 18109 10393 33004 10262 20172 30016 40134 7//// 8//// | |||
| 2015-07-18T11:00 | 5 | 280 | 5 | 27.1 | 17.5 | 1002 | 1014 | 18119 10393 52805 10271 20175 30021 40139 7//// 8//// | |||
| 2015-07-18T12:00 | 7 | 270 | 5 | 26.1 | 16.6 | 1002 | 1014 | 18129 10393 72705 10261 20166 30025 40143 7//// 8//// | |||
| 2015-07-18T13:00 | 6 | 280 | 5 | 26.0 | 16.4 | 1003 | 1015 | 25 | 2 | 2 | 18139 10393 62805 10260 20164 30029 40148 72522 8//// |
| 2015-07-18T14:00 | 7 | 300 | 3 | 25.8 | 17.4 | 1003 | 1014 | 95 | 8 | 2 | 18149 10393 73003 10258 20174 30026 40145 79582 8//// |
| 2015-07-18T15:00 | 5 | 270 | 2 | 25.0 | 19.3 | 1002 | 1014 | 29 | 9 | 8 | 18159 10393 52702 10250 20193 30024 40143 72998 8//// |
| 2015-07-18T16:00 | 4 | 300 | 4 | 25.4 | 16.2 | 1002 | 1014 | 18169 10393 43004 10254 20162 30023 40142 7//// 8//// | |||
| 2015-07-18T17:00 | 4 | 300 | 3 | 24.5 | 15.5 | 1002 | 1014 | 18179 10393 43003 10245 20155 30023 40142 7//// 8//// | |||
| 2015-07-18T18:00 | 5 | 300 | 2 | 23.8 | 15.9 | 1002 | 1014 | 3 | 9 | 8 | 18189 10393 53002 10238 20159 30020 40139 70398 8//// |
| 2015-07-18T19:00 | 4 | 310 | 1 | 22.1 | 15.8 | 1002 | 1014 | 18199 10393 43101 10221 20158 30021 40141 7//// 8//// | |||
| 2015-07-18T20:00 | 6 | 260 | 2 | 20.6 | 16.2 | 1003 | 1015 | 18209 10393 62602 10206 20162 30030 40151 7//// 8//// | |||
| 2015-07-18T21:00 | 7 | 300 | 2 | 20.3 | 15.1 | 1003 | 1016 | 18219 10393 73002 10203 20151 30034 40155 7//// 8//// | |||
| 2015-07-18T22:00 | 6 | 330 | 1 | 18.9 | 14.8 | 1003 | 1016 | 18229 10393 63301 10189 20148 30033 40155 7//// 8//// | |||
| 2015-07-18T23:00 | 0 | 340 | 2 | 18.0 | 14.4 | 1003 | 1016 | 18239 10393 03402 10180 20144 30033 40155 7//// 8//// | |||
| 2015-07-19T00:00 | 0 | 360 | 1 | 17.7 | 12.3 | 1003 | 1015 | 19009 10393 03601 10177 20123 30031 40153 7//// 8//// | |||
| 2015-07-19T01:00 | 8 | 20 | 1 | 18.8 | 11.5 | 1003 | 1015 | 19019 10393 80201 10188 20115 30029 40151 7//// 8//// | |||
| 2015-07-19T02:00 | 4 | 50 | 2 | 17.0 | 11.6 | 1002 | 1014 | 19029 10393 40502 10170 20116 30022 40144 7//// 8//// | |||
| 2015-07-19T03:00 | 7 | 30 | 2 | 18.0 | 11.3 | 1002 | 1014 | 19039 10393 70302 10180 20113 30021 40143 7//// 8//// | |||
| 2015-07-19T04:00 | 7 | 40 | 2 | 17.3 | 12.5 | 1001 | 1014 | 19049 10393 70402 10173 20125 30013 40135 7//// 8//// | |||
| 2015-07-19T05:00 | 7 | 50 | 2 | 17.7 | 12.8 | 1001 | 1013 | 19059 10393 70502 10177 20128 30009 40131 7//// 8//// | |||
| 2015-07-19T06:00 | 8 | 70 | 2 | 18.2 | 13.2 | 1000 | 1013 | 21 | 1 | 1 | 19069 10393 80702 10182 20132 30004 40126 72111 8//// |
| 2015-07-19T07:00 | 7 | 80 | 3 | 19.0 | 14.2 | 999 | 1012 | 21 | 2 | 2 | 19079 10393 70803 10190 20142 39994 40115 72122 8//// |
| 2015-07-19T08:00 | 7 | 100 | 3 | 21.8 | 15.8 | 998 | 1010 | 21 | 2 | 2 | 19089 10393 71003 10218 20158 39981 40101 72122 8//// |
| 2015-07-19T09:00 | 7 | 110 | 3 | 23.1 | 15.7 | 997 | 1009 | 21 | 6 | 2 | 19099 10393 71103 10231 20157 39968 40087 72162 8//// |
| 2015-07-19T10:00 | 8 | 120 | 3 | 23.6 | 16.6 | 996 | 1008 | 21 | 2 | 2 | 19109 10393 81203 10236 20166 39958 40077 72122 8//// |
| 2015-07-19T11:00 | 8 | 220 | 2 | 21.8 | 18.6 | 996 | 1008 | 81 | 6 | 2 | 19119 10393 82202 10218 20186 39959 40078 78162 8//// |
| 2015-07-19T12:00 | 7 | 360 | 2 | 22.5 | 20.2 | 994 | 1006 | 17 | 8 | 6 | 19129 10393 73602 10225 20202 39943 40062 71786 8//// |
| 2015-07-19T13:00 | 5 | 290 | 3 | 21.8 | 19.6 | 994 | 1006 | 29 | 8 | 2 | 19139 10393 52903 10218 20196 39942 40061 72982 8//// |
| 2015-07-19T14:00 | 6 | 260 | 7 | 24.8 | 19.2 | 994 | 1006 | 19149 10393 62607 10248 20192 39940 40058 7//// 8//// | |||
| 2015-07-19T15:00 | 4 | 270 | 9 | 24.6 | 17.5 | 994 | 1006 | 1 | 9 | 8 | 19159 10393 42709 10246 20175 39942 40060 70198 8//// |
| 2015-07-19T16:00 | 3 | 280 | 6 | 23.9 | 17.6 | 994 | 1006 | 19169 10393 32806 10239 20176 39943 40061 7//// 8//// | |||
| 2015-07-19T17:00 | 7 | 290 | 5 | 21.5 | 16.5 | 995 | 1007 | 80 | 1 | 1 | 19179 10393 72905 10215 20165 39947 40066 78011 8//// |
| 2015-07-19T18:00 | 7 | 290 | 4 | 20.0 | 16.7 | 995 | 1007 | 80 | 9 | 8 | 19189 10393 72904 10200 20167 39950 40070 78098 8//// |
| 2015-07-19T19:00 | 6 | 300 | 5 | 19.5 | 15.7 | 995 | 1007 | 25 | 2 | 2 | 19199 10393 63005 10195 20157 39951 40071 72522 8//// |
| 2015-07-19T20:00 | 6 | 300 | 4 | 17.7 | 14.4 | 996 | 1008 | 19209 10393 63004 10177 20144 39959 40080 7//// 8//// | |||
| 2015-07-19T21:00 | 5 | 290 | 3 | 16.5 | 14.1 | 996 | 1009 | 3 | 8 | 1 | 19219 10393 52903 10165 20141 39965 40087 70381 8//// |
| 2015-07-19T22:00 | 6 | 260 | 2 | 16.4 | 14.1 | 997 | 1009 | 19229 10393 62602 10164 20141 39971 40093 7//// 8//// | |||
| 2015-07-19T23:00 | 7 | 250 | 3 | 16.3 | 14.2 | 998 | 1010 | 19239 10393 72503 10163 20142 39978 40100 7//// 8//// | |||
| 2015-07-20T00:00 | 7 | 280 | 6 | 16.5 | 14.0 | 998 | 1010 | 3 | 8 | 1 | 20009 10393 72806 10165 20140 39983 40105 70381 8//// |
| 2015-07-20T01:00 | 5 | 270 | 5 | 15.8 | 13.9 | 999 | 1011 | 20019 10393 52705 10158 20139 39987 40109 7//// 8//// | |||
| 2015-07-20T02:00 | 1 | 250 | 3 | 14.8 | 13.5 | 999 | 1011 | 20029 10393 12503 10148 20135 39990 40113 7//// 8//// | |||
| 2015-07-20T03:00 | 0 | 240 | 4 | 14.6 | 13.4 | 999 | 1011 | 20039 10393 02404 10146 20134 39991 40114 7//// 8//// | |||
| 2015-07-20T04:00 | 1 | 240 | 4 | 14.4 | 13.1 | 1000 | 1012 | 20049 10393 12404 10144 20131 39995 40118 7//// 8//// | |||
| 2015-07-20T05:00 | 4 | 250 | 5 | 15.1 | 13.4 | 1000 | 1012 | 20059 10393 42505 10151 20134 39999 40122 7//// 8//// | |||
| 2015-07-20T06:00 | 5 | 260 | 5 | 16.5 | 13.4 | 1000 | 1012 | 20069 10393 52605 10165 20134 30000 40122 7//// 8//// | |||
| 2015-07-20T07:00 | 3 | 270 | 6 | 17.3 | 12.1 | 1001 | 1013 | 20079 10393 32706 10173 20121 30006 40128 7//// 8//// | |||
| 2015-07-20T08:00 | 2 | 280 | 5 | 18.2 | 10.8 | 1001 | 1013 | 20089 10393 22805 10182 20108 30008 40130 7//// 8//// | |||
| 2015-07-20T09:00 | 2 | 270 | 6 | 19.1 | 9.7 | 1001 | 1013 | 20099 10393 22706 10191 20097 30011 40132 7//// 8//// | |||
| 2015-07-20T10:00 | 2 | 280 | 6 | 20.1 | 10.0 | 1001 | 1014 | 20109 10393 22806 10201 20100 30014 40135 7//// 8//// | |||
| 2015-07-20T11:00 | 3 | 280 | 6 | 21.5 | 10.5 | 1001 | 1013 | 20119 10393 32806 10215 20105 30014 40134 7//// 8//// | |||
| 2015-07-20T12:00 | 3 | 270 | 6 | 22.7 | 10.3 | 1001 | 1013 | 20129 10393 32706 10227 20103 30014 40134 7//// 8//// | |||
| 2015-07-20T13:00 | 3 | 270 | 6 | 23.2 | 9.6 | 1001 | 1013 | 20139 10393 32706 10232 20096 30013 40133 7//// 8//// | |||
| 2015-07-20T14:00 | 4 | 290 | 6 | 23.5 | 9.7 | 1001 | 1013 | 20149 10393 42906 10235 20097 30010 40130 7//// 8//// | |||
| 2015-07-20T15:00 | 4 | 290 | 5 | 23.9 | 8.6 | 1001 | 1013 | 20159 10393 42905 10239 20086 30009 40129 7//// 8//// | |||
| 2015-07-20T16:00 | 5 | 290 | 4 | 24.3 | 9.6 | 1001 | 1013 | 20169 10393 52904 10243 20096 30007 40126 7//// 8//// | |||
| 2015-07-20T17:00 | 3 | 300 | 3 | 24.1 | 9.8 | 1000 | 1012 | 20179 10393 33003 10241 20098 30005 40124 7//// 8//// | |||
| 2015-07-20T18:00 | 2 | 300 | 2 | 23.4 | 11.5 | 1001 | 1013 | 20189 10393 23002 10234 20115 30006 40126 7//// 8//// | |||
| 2015-07-20T19:00 | 2 | 10 | 1 | 19.9 | 12.0 | 1001 | 1013 | 20199 10393 20101 10199 20120 30006 40127 7//// 8//// | |||
| 2015-07-20T20:00 | 3 | 50 | 2 | 19.0 | 10.5 | 1001 | 1013 | 20209 10393 30502 10190 20105 30010 40131 7//// 8//// | |||
| 2015-07-20T21:00 | 5 | 70 | 3 | 19.8 | 9.7 | 1001 | 1013 | 20219 10393 50703 10198 20097 30011 40132 7//// 8//// | |||
| 2015-07-20T22:00 | 3 | 80 | 3 | 18.8 | 9.9 | 1001 | 1013 | 20229 10393 30803 10188 20099 30010 40132 7//// 8//// | |||
| 2015-07-20T23:00 | 3 | 100 | 3 | 18.3 | 9.9 | 1001 | 1013 | 20239 10393 31003 10183 20099 30009 40131 7//// 8//// | |||
| 2015-07-21T00:00 | 8 | 110 | 3 | 18.5 | 10.0 | 1001 | 1013 | 21009 10393 81103 10185 20100 30007 40129 7//// 8//// | |||
| 2015-07-21T01:00 | 8 | 140 | 2 | 17.6 | 10.9 | 1000 | 1013 | 21 | 2 | 2 | 21019 10393 81402 10176 20109 30004 40126 72122 8//// |
| 2015-07-21T02:00 | 8 | 130 | 2 | 16.7 | 13.2 | 1000 | 1012 | 21029 10393 81302 10167 20132 30000 40122 7//// 8//// | |||
| 2015-07-21T03:00 | 7 | 150 | 2 | 16.4 | 14.4 | 1000 | 1012 | 1 | 6 | 2 | 21039 10393 71502 10164 20144 39997 40119 70162 8//// |
| 2015-07-21T04:00 | 7 | 170 | 2 | 17.1 | 15.5 | 1000 | 1012 | 21049 10393 71702 10171 20155 39998 40120 7//// 8//// | |||
| 2015-07-21T05:00 | 8 | 210 | 2 | 18.3 | 17.1 | 1000 | 1012 | 21059 10393 82102 10183 20171 30002 40123 7//// 8//// | |||
| 2015-07-21T06:00 | 8 | 230 | 2 | 18.9 | 18.2 | 1000 | 1012 | 21 | 6 | 2 | 21069 10393 82302 10189 20182 30002 40123 72162 8//// |
| 2015-07-21T07:00 | 7 | 250 | 3 | 20.8 | 19.0 | 1000 | 1012 | 21079 10393 72503 10208 20190 30003 40123 7//// 8//// | |||
| 2015-07-21T08:00 | 5 | 240 | 3 | 23.0 | 19.7 | 1000 | 1012 | 21089 10393 52403 10230 20197 30003 40122 7//// 8//// | |||
| 2015-07-21T09:00 | 5 | 240 | 4 | 24.4 | 19.4 | 1000 | 1012 | 21099 10393 52404 10244 20194 30003 40122 7//// 8//// | |||
| 2015-07-21T10:00 | 5 | 270 | 5 | 25.6 | 18.3 | 1000 | 1012 | 21109 10393 52705 10256 20183 30002 40120 7//// 8//// | |||
| 2015-07-21T11:00 | 4 | 240 | 5 | 26.3 | 18.0 | 1000 | 1012 | 21119 10393 42405 10263 20180 39998 40116 7//// 8//// | |||
| 2015-07-21T12:00 | 5 | 220 | 6 | 27.0 | 17.6 | 999 | 1011 | 21129 10393 52206 10270 20176 39994 40112 7//// 8//// | |||
| 2015-07-21T13:00 | 7 | 290 | 4 | 22.2 | 19.9 | 1000 | 1012 | 80 | 2 | 2 | 21139 10393 72904 10222 20199 30000 40120 78022 8//// |
| 2015-07-21T14:00 | 8 | 270 | 7 | 21.1 | 19.8 | 1001 | 1013 | 81 | 8 | 8 | 21149 10393 82707 10211 20198 30009 40129 78188 8//// |
| 2015-07-21T15:00 | 7 | 260 | 3 | 21.8 | 19.9 | 1000 | 1012 | 25 | 8 | 2 | 21159 10393 72603 10218 20199 30002 40122 72582 8//// |
| 2015-07-21T16:00 | 1 | 240 | 3 | 24.1 | 20.4 | 1000 | 1012 | 21169 10393 12403 10241 20204 30001 40120 7//// 8//// | |||
| 2015-07-21T17:00 | 1 | 260 | 4 | 24.8 | 20.2 | 1000 | 1012 | 21179 10393 12604 10248 20202 30000 40118 7//// 8//// | |||
| 2015-07-21T18:00 | 1 | 250 | 3 | 24.8 | 20.1 | 1000 | 1012 | 1 | 8 | 1 | 21189 10393 12503 10248 20201 30002 40120 70181 8//// |
| 2015-07-21T19:00 | 2 | 250 | 2 | 22.8 | 19.7 | 1000 | 1012 | 21199 10393 22502 10228 20197 30005 40124 7//// 8//// | |||
| 2015-07-21T20:00 | 5 | 270 | 3 | 22.4 | 18.1 | 1001 | 1013 | 21209 10393 52703 10224 20181 30012 40132 7//// 8//// | |||
| 2015-07-21T21:00 | 5 | 350 | 1 | 20.3 | 18.9 | 1002 | 1014 | 21219 10393 53501 10203 20189 30016 40137 7//// 8//// | |||
| 2015-07-21T22:00 | 7 | 330 | 2 | 19.9 | 16.1 | 1002 | 1014 | 21229 10393 73302 10199 20161 30018 40139 7//// 8//// | |||
| 2015-07-21T23:00 | 5 | 310 | 2 | 19.2 | 15.3 | 1002 | 1014 | 21239 10393 53102 10192 20153 30019 40140 7//// 8//// | |||
| 2015-07-22T00:00 | 6 | 210 | 1 | 19.1 | 14.9 | 1002 | 1014 | 22009 10393 62101 10191 20149 30018 40139 7//// 8//// | |||
| 2015-07-22T01:00 | 7 | 240 | 1 | 19.5 | 14.9 | 1002 | 1014 | 22019 10393 72401 10195 20149 30017 40138 7//// 8//// | |||
| 2015-07-22T02:00 | 7 | 240 | 1 | 19.3 | 14.8 | 1002 | 1014 | 22029 10393 72401 10193 20148 30018 40139 7//// 8//// | |||
| 2015-07-22T03:00 | 6 | 230 | 1 | 18.7 | 14.3 | 1002 | 1014 | 22039 10393 62301 10187 20143 30018 40140 7//// 8//// | |||
| 2015-07-22T04:00 | 7 | 140 | 2 | 18.5 | 14.7 | 1002 | 1014 | 22049 10393 71402 10185 20147 30018 40140 7//// 8//// | |||
| 2015-07-22T05:00 | 6 | 160 | 1 | 20.0 | 16.4 | 1002 | 1014 | 22059 10393 61601 10200 20164 30019 40140 7//// 8//// | |||
| 2015-07-22T06:00 | 7 | 160 | 1 | 21.6 | 16.4 | 1002 | 1014 | 22069 10393 71601 10216 20164 30021 40141 7//// 8//// | |||
| 2015-07-22T07:00 | 6 | 200 | 2 | 23.1 | 15.4 | 1002 | 1014 | 22079 10393 62002 10231 20154 30021 40141 7//// 8//// | |||
| 2015-07-22T08:00 | 7 | 210 | 2 | 24.5 | 15.3 | 1002 | 1014 | 22089 10393 72102 10245 20153 30021 40140 7//// 8//// | |||
| 2015-07-22T09:00 | 7 | 250 | 3 | 25.8 | 15.6 | 1002 | 1014 | 22099 10393 72503 10258 20156 30019 40138 7//// 8//// | |||
| 2015-07-22T10:00 | 8 | 270 | 2 | 26.4 | 13.4 | 1002 | 1014 | 22109 10393 82702 10264 20134 30017 40135 7//// 8//// | |||
| 2015-07-22T11:00 | 6 | 310 | 2 | 27.3 | 15.6 | 1002 | 1013 | 22119 10393 63102 10273 20156 30016 40134 7//// 8//// | |||
| 2015-07-22T12:00 | 6 | 290 | 3 | 27.0 | 15.7 | 1001 | 1013 | 22129 10393 62903 10270 20157 30013 40131 7//// 8//// | |||
| 2015-07-22T13:00 | 5 | 260 | 2 | 28.3 | 15.9 | 1001 | 1013 | 22139 10393 52602 10283 20159 30009 40126 7//// 8//// | |||
| 2015-07-22T14:00 | 6 | 300 | 2 | 28.7 | 16.9 | 1000 | 1012 | 22149 10393 63002 10287 20169 30003 40120 7//// 8//// | |||
| 2015-07-22T15:00 | 5 | 300 | 2 | 29.5 | 15.9 | 1000 | 1012 | 22159 10393 53002 10295 20159 39998 40115 7//// 8//// | |||
| 2015-07-22T16:00 | 5 | 310 | 1 | 29.5 | 16.3 | 999 | 1011 | 22169 10393 53101 10295 20163 39994 40111 7//// 8//// | |||
| 2015-07-22T17:00 | 5 | 50 | 1 | 28.3 | 16.6 | 999 | 1010 | 22179 10393 50501 10283 20166 39988 40105 7//// 8//// | |||
| 2015-07-22T18:00 | 6 | 100 | 2 | 27.2 | 17.2 | 998 | 1010 | 22189 10393 61002 10272 20172 39985 40103 7//// 8//// | |||
| 2015-07-22T19:00 | 7 | 30 | 2 | 25.6 | 17.5 | 998 | 1010 | 22199 10393 70302 10256 20175 39985 40103 7//// 8//// | |||
| 2015-07-22T20:00 | 7 | 20 | 1 | 24.0 | 18.1 | 999 | 1010 | 22209 10393 70201 10240 20181 39986 40105 7//// 8//// | |||
| 2015-07-22T21:00 | 8 | 40 | 2 | 23.4 | 17.8 | 998 | 1010 | 95 | 8 | 2 | 22219 10393 80402 10234 20178 39983 40102 79582 8//// |
| 2015-07-22T22:00 | 8 | 300 | 3 | 21.1 | 19.2 | 1000 | 1012 | 95 | 9 | 8 | 22229 10393 83003 10211 20192 39998 40118 79598 8//// |
| 2015-07-22T23:00 | 8 | 230 | 4 | 20.2 | 19.3 | 1001 | 1013 | 95 | 9 | 8 | 22239 10393 82304 10202 20193 30007 40127 79598 8//// |
| 2015-07-23T00:00 | 8 | 280 | 2 | 20.1 | 19.5 | 1000 | 1012 | 91 | 9 | 8 | 23009 10393 82802 10201 20195 39999 40119 79198 8//// |
| 2015-07-23T01:00 | 8 | 310 | 3 | 19.5 | 18.7 | 1000 | 1012 | 61 | 8 | 6 | 23019 10393 83103 10195 20187 39995 40116 76186 8//// |
| 2015-07-23T02:00 | 8 | 310 | 3 | 18.5 | 17.8 | 999 | 1011 | 60 | 6 | 6 | 23029 10393 83103 10185 20178 39991 40112 76066 8//// |
| 2015-07-23T03:00 | 8 | 300 | 3 | 18.3 | 17.7 | 999 | 1011 | 21 | 8 | 6 | 23039 10393 83003 10183 20177 39993 40114 72186 8//// |
| 2015-07-23T04:00 | 8 | 290 | 4 | 18.2 | 17.4 | 1000 | 1012 | 23049 10393 82904 10182 20174 30001 40122 7//// 8//// | |||
| 2015-07-23T05:00 | 8 | 300 | 3 | 17.6 | 16.5 | 1001 | 1013 | 23059 10393 83003 10176 20165 30011 40133 7//// 8//// | |||
| 2015-07-23T06:00 | 7 | 300 | 3 | 17.1 | 15.0 | 1002 | 1014 | 1 | 8 | 6 | 23069 10393 73003 10171 20150 30017 40139 70186 8//// |
| 2015-07-23T07:00 | 5 | 290 | 3 | 18.5 | 14.2 | 1002 | 1014 | 23079 10393 52903 10185 20142 30021 40143 7//// 8//// | |||
| 2015-07-23T08:00 | 5 | 300 | 3 | 19.4 | 12.9 | 1002 | 1014 | 23089 10393 53003 10194 20129 30023 40144 7//// 8//// | |||
| 2015-07-23T09:00 | 5 | 300 | 4 | 20.7 | 11.3 | 1003 | 1015 | 23099 10393 53004 10207 20113 30027 40148 7//// 8//// | |||
| 2015-07-23T10:00 | 3 | 270 | 4 | 21.7 | 11.1 | 1003 | 1015 | 23109 10393 32704 10217 20111 30028 40149 7//// 8//// | |||
| 2015-07-23T11:00 | 4 | 270 | 5 | 22.2 | 10.6 | 1003 | 1015 | 23119 10393 42705 10222 20106 30030 40150 7//// 8//// | |||
| 2015-07-23T12:00 | 6 | 290 | 4 | 22.6 | 12.0 | 1003 | 1015 | 23129 10393 62904 10226 20120 30029 40149 7//// 8//// | |||
| 2015-07-23T13:00 | 6 | 260 | 4 | 22.7 | 12.1 | 1003 | 1015 | 23139 10393 62604 10227 20121 30028 40148 7//// 8//// | |||
| 2015-07-23T14:00 | 6 | 250 | 3 | 22.6 | 12.5 | 1003 | 1015 | 23149 10393 62503 10226 20125 30026 40146 7//// 8//// | |||
| 2015-07-23T15:00 | 6 | 270 | 4 | 22.6 | 11.9 | 1002 | 1014 | 23159 10393 62704 10226 20119 30025 40145 7//// 8//// | |||
| 2015-07-23T16:00 | 5 | 270 | 3 | 22.9 | 12.6 | 1002 | 1014 | 23169 10393 52703 10229 20126 30022 40142 7//// 8//// | |||
| 2015-07-23T17:00 | 4 | 260 | 4 | 22.9 | 11.7 | 1002 | 1014 | 23179 10393 42604 10229 20117 30021 40141 7//// 8//// | |||
| 2015-07-23T18:00 | 6 | 260 | 3 | 21.8 | 13.0 | 1002 | 1014 | 23189 10393 62603 10218 20130 30021 40141 7//// 8//// | |||
| 2015-07-23T19:00 | 6 | 260 | 2 | 20.9 | 14.0 | 1002 | 1015 | 23199 10393 62602 10209 20140 30025 40146 7//// 8//// | |||
| 2015-07-23T20:00 | 7 | 290 | 2 | 20.2 | 13.9 | 1003 | 1015 | 23209 10393 72902 10202 20139 30031 40152 7//// 8//// | |||
| 2015-07-23T21:00 | 6 | 20 | 3 | 18.7 | 12.8 | 1004 | 1016 | 23219 10393 60203 10187 20128 30038 40160 7//// 8//// | |||
| 2015-07-23T22:00 | 0 | 10 | 2 | 16.4 | 12.8 | 1004 | 1016 | 23229 10393 00102 10164 20128 30042 40165 7//// 8//// | |||
| 2015-07-23T23:00 | 0 | 50 | 1 | 15.8 | 12.8 | 1004 | 1017 | 23239 10393 00501 10158 20128 30044 40167 7//// 8//// | |||
| 2015-07-24T00:00 | 0 | 30 | 2 | 14.5 | 12.6 | 1004 | 1017 | 24009 10393 00302 10145 20126 30044 40168 7//// 8//// | |||
| 2015-07-24T01:00 | 0 | 50 | 2 | 15.0 | 12.7 | 1004 | 1017 | 24019 10393 00502 10150 20127 30043 40166 7//// 8//// | |||
| 2015-07-24T02:00 | 0 | 60 | 2 | 15.0 | 12.5 | 1004 | 1017 | 24029 10393 00602 10150 20125 30044 40167 7//// 8//// | |||
| 2015-07-24T03:00 | 6 | 50 | 2 | 15.2 | 12.4 | 1004 | 1016 | 24039 10393 60502 10152 20124 30042 40165 7//// 8//// | |||
| 2015-07-24T04:00 | 6 | 70 | 2 | 15.4 | 11.9 | 1004 | 1017 | 24049 10393 60702 10154 20119 30043 40166 7//// 8//// | |||
| 2015-07-24T05:00 | 6 | 80 | 2 | 15.3 | 12.4 | 1005 | 1017 | 24059 10393 60802 10153 20124 30047 40170 7//// 8//// | |||
| 2015-07-24T06:00 | 6 | 80 | 3 | 16.3 | 12.2 | 1005 | 1017 | 24069 10393 60803 10163 20122 30046 40169 7//// 8//// | |||
| 2015-07-24T07:00 | 4 | 90 | 3 | 17.8 | 10.4 | 1005 | 1017 | 24079 10393 40903 10178 20104 30046 40168 7//// 8//// | |||
| 2015-07-24T08:00 | 3 | 80 | 3 | 19.5 | 11.4 | 1004 | 1016 | 24089 10393 30803 10195 20114 30043 40165 7//// 8//// | |||
| 2015-07-24T09:00 | 3 | 90 | 2 | 20.8 | 10.6 | 1004 | 1016 | 24099 10393 30902 10208 20106 30042 40163 7//// 8//// | |||
| 2015-07-24T10:00 | 2 | 110 | 3 | 21.8 | 10.0 | 1004 | 1016 | 24109 10393 21103 10218 20100 30038 40159 7//// 8//// | |||
| 2015-07-24T11:00 | 2 | 110 | 2 | 23.0 | 11.2 | 1003 | 1015 | 24119 10393 21102 10230 20112 30030 40150 7//// 8//// | |||
| 2015-07-24T12:00 | 3 | 120 | 2 | 24.3 | 13.0 | 1002 | 1014 | 24129 10393 31202 10243 20130 30024 40143 7//// 8//// | |||
| 2015-07-24T13:00 | 3 | 110 | 4 | 24.9 | 12.0 | 1002 | 1014 | 24139 10393 31104 10249 20120 30017 40136 7//// 8//// | |||
| 2015-07-24T14:00 | 4 | 70 | 2 | 25.3 | 12.1 | 1001 | 1013 | 24149 10393 40702 10253 20121 30009 40128 7//// 8//// | |||
| 2015-07-24T15:00 | 3 | 80 | 2 | 25.9 | 12.5 | 1000 | 1012 | 24159 10393 30802 10259 20125 30003 40121 7//// 8//// | |||
| 2015-07-24T16:00 | 5 | 90 | 2 | 25.7 | 13.5 | 999 | 1011 | 24169 10393 50902 10257 20135 39994 40112 7//// 8//// | |||
| 2015-07-24T17:00 | 4 | 100 | 3 | 25.7 | 13.5 | 999 | 1010 | 24179 10393 41003 10257 20135 39987 40105 7//// 8//// | |||
| 2015-07-24T18:00 | 4 | 80 | 3 | 24.7 | 13.5 | 998 | 1010 | 24189 10393 40803 10247 20135 39983 40102 7//// 8//// | |||
| 2015-07-24T19:00 | 4 | 70 | 2 | 23.1 | 13.5 | 998 | 1010 | 24199 10393 40702 10231 20135 39980 40099 7//// 8//// | |||
| 2015-07-24T20:00 | 3 | 80 | 3 | 22.1 | 13.9 | 998 | 1010 | 24209 10393 30803 10221 20139 39979 40099 7//// 8//// | |||
| 2015-07-24T21:00 | 4 | 80 | 3 | 21.3 | 13.8 | 997 | 1009 | 24219 10393 40803 10213 20138 39974 40094 7//// 8//// | |||
| 2015-07-24T22:00 | 2 | 80 | 3 | 20.6 | 13.6 | 997 | 1009 | 24229 10393 20803 10206 20136 39967 40087 7//// 8//// | |||
| 2015-07-24T23:00 | 2 | 90 | 4 | 20.0 | 13.2 | 996 | 1008 | 24239 10393 20904 10200 20132 39960 40080 7//// 8//// | |||
| 2015-07-25T00:00 | 4 | 90 | 4 | 19.7 | 13.1 | 994 | 1006 | 13 | 1 | 1 | 25009 10393 40904 10197 20131 39944 40064 71311 8//// |
| 2015-07-25T01:00 | 6 | 90 | 4 | 19.4 | 13.1 | 993 | 1005 | 25019 10393 60904 10194 20131 39927 40047 7//// 8//// | |||
| 2015-07-25T02:00 | 5 | 90 | 4 | 19.2 | 13.2 | 992 | 1004 | 17 | 1 | 1 | 25029 10393 50904 10192 20132 39916 40036 71711 8//// |
| 2015-07-25T03:00 | 7 | 100 | 4 | 19.6 | 13.3 | 991 | 1003 | 29 | 9 | 1 | 25039 10393 71004 10196 20133 39907 40027 72991 8//// |
| 2015-07-25T04:00 | 7 | 120 | 3 | 18.3 | 15.0 | 990 | 1002 | 17 | 9 | 8 | 25049 10393 71203 10183 20150 39900 40020 71798 8//// |
| 2015-07-25T05:00 | 8 | 110 | 3 | 18.9 | 14.8 | 990 | 1002 | 29 | 9 | 9 | 25059 10393 81103 10189 20148 39895 40015 72999 8//// |
| 2015-07-25T06:00 | 8 | 160 | 1 | 19.5 | 15.2 | 990 | 1002 | 60 | 9 | 8 | 25069 10393 81601 10195 20152 39900 40020 76098 8//// |
| 2015-07-25T07:00 | 8 | 130 | 3 | 19.0 | 16.6 | 990 | 1002 | 61 | 6 | 6 | 25079 10393 81303 10190 20166 39899 40019 76166 8//// |
| 2015-07-25T08:00 | 7 | 180 | 3 | 20.1 | 16.9 | 990 | 1002 | 60 | 6 | 6 | 25089 10393 71803 10201 20169 39904 40023 76066 8//// |
| 2015-07-25T09:00 | 7 | 210 | 4 | 21.7 | 16.9 | 991 | 1003 | 21 | 6 | 2 | 25099 10393 72104 10217 20169 39908 40027 72162 8//// |
| 2015-07-25T10:00 | 7 | 220 | 5 | 23.6 | 16.7 | 991 | 1002 | 21 | 2 | 2 | 25109 10393 72205 10236 20167 39906 40024 72122 8//// |
| 2015-07-25T11:00 | 7 | 230 | 7 | 24.4 | 15.9 | 991 | 1002 | 25119 10393 72307 10244 20159 39907 40025 7//// 8//// | |||
| 2015-07-25T12:00 | 6 | 230 | 5 | 24.4 | 15.3 | 991 | 1002 | 2 | 6 | 2 | 25129 10393 62305 10244 20153 39906 40024 70262 8//// |
| 2015-07-25T13:00 | 4 | 210 | 5 | 25.9 | 15.9 | 990 | 1002 | 25139 10393 42105 10259 20159 39900 40017 7//// 8//// | |||
| 2015-07-25T14:00 | 5 | 230 | 7 | 27.2 | 11.4 | 989 | 1001 | 25149 10393 52307 10272 20114 39893 40010 7//// 8//// | |||
| 2015-07-25T15:00 | 4 | 250 | 10 | 27.2 | 8.5 | 990 | 1002 | 25159 10393 42510 10272 20085 39898 40015 7//// 8//// | |||
| 2015-07-25T16:00 | 5 | 240 | 9 | 26.1 | 8.4 | 990 | 1002 | 25169 10393 52409 10261 20084 39901 40018 7//// 8//// | |||
| 2015-07-25T17:00 | 3 | 240 | 12 | 24.5 | 7.4 | 991 | 1003 | 25179 10393 32412 10245 20074 39909 40027 7//// 8//// | |||
| 2015-07-25T18:00 | 2 | 240 | 10 | 21.7 | 8.5 | 992 | 1004 | 25189 10393 22410 10217 20085 39920 40039 7//// 8//// | |||
| 2015-07-25T19:00 | 1 | 230 | 8 | 20.1 | 10.2 | 993 | 1005 | 25199 10393 12308 10201 20102 39926 40046 7//// 8//// | |||
| 2015-07-25T20:00 | 1 | 240 | 8 | 18.7 | 9.4 | 994 | 1006 | 25209 10393 12408 10187 20094 39936 40057 7//// 8//// | |||
| 2015-07-25T21:00 | 6 | 240 | 10 | 18.1 | 8.1 | 994 | 1006 | 25219 10393 62410 10181 20081 39937 40058 7//// 8//// | |||
| 2015-07-25T22:00 | 8 | 230 | 10 | 17.2 | 8.1 | 994 | 1006 | 25229 10393 82310 10172 20081 39943 40064 7//// 8//// | |||
| 2015-07-25T23:00 | 8 | 240 | 10 | 16.3 | 8.5 | 994 | 1007 | 21 | 2 | 2 | 25239 10393 82410 10163 20085 39945 40067 72122 8//// |
| 2015-07-26T00:00 | 8 | 240 | 11 | 14.2 | 10.0 | 995 | 1007 | 58 | 6 | 1 | 26009 10393 82411 10142 20100 39949 40072 75861 8//// |
| 2015-07-26T01:00 | 8 | 240 | 10 | 13.5 | 10.6 | 995 | 1008 | 58 | 6 | 6 | 26019 10393 82410 10135 20106 39952 40075 75866 8//// |
| 2015-07-26T02:00 | 8 | 250 | 10 | 14.8 | 9.7 | 996 | 1008 | 21 | 6 | 6 | 26029 10393 82510 10148 20097 39958 40081 72166 8//// |
| 2015-07-26T03:00 | 8 | 250 | 10 | 14.8 | 9.0 | 997 | 1009 | 3 | 6 | 2 | 26039 10393 82510 10148 20090 39971 40094 70362 8//// |
| 2015-07-26T04:00 | 8 | 250 | 9 | 14.5 | 8.5 | 998 | 1010 | 26049 10393 82509 10145 20085 39978 40101 7//// 8//// | |||
| 2015-07-26T05:00 | 8 | 260 | 9 | 14.3 | 8.6 | 998 | 1011 | 26059 10393 82609 10143 20086 39984 40107 7//// 8//// | |||
| 2015-07-26T06:00 | 8 | 260 | 6 | 14.1 | 8.9 | 999 | 1012 | 2 | 6 | 2 | 26069 10393 82606 10141 20089 39992 40115 70262 8//// |
| 2015-07-26T07:00 | 7 | 260 | 8 | 14.7 | 9.1 | 1000 | 1012 | 26079 10393 72608 10147 20091 39997 40120 7//// 8//// | |||
| 2015-07-26T08:00 | 7 | 260 | 9 | 15.0 | 8.0 | 1000 | 1012 | 26089 10393 72609 10150 20080 30002 40125 7//// 8//// | |||
| 2015-07-26T09:00 | 7 | 270 | 6 | 15.7 | 6.9 | 1001 | 1013 | 26099 10393 72706 10157 20069 30006 40129 7//// 8//// | |||
| 2015-07-26T10:00 | 6 | 260 | 7 | 16.6 | 7.5 | 1001 | 1013 | 26109 10393 62607 10166 20075 30006 40129 7//// 8//// | |||
| 2015-07-26T11:00 | 5 | 260 | 7 | 16.8 | 6.6 | 1001 | 1013 | 26119 10393 52607 10168 20066 30007 40129 7//// 8//// | |||
| 2015-07-26T12:00 | 5 | 260 | 6 | 18.7 | 6.0 | 1000 | 1013 | 26129 10393 52606 10187 20060 30005 40127 7//// 8//// | |||
| 2015-07-26T13:00 | 6 | 290 | 5 | 18.2 | 5.6 | 1000 | 1012 | 26139 10393 62905 10182 20056 30002 40124 7//// 8//// | |||
| 2015-07-26T14:00 | 5 | 280 | 5 | 19.3 | 5.3 | 1000 | 1012 | 26149 10393 52805 10193 20053 39996 40117 7//// 8//// | |||
| 2015-07-26T15:00 | 4 | 280 | 4 | 19.3 | 4.9 | 999 | 1011 | 26159 10393 42804 10193 20049 39991 40112 7//// 8//// | |||
| 2015-07-26T16:00 | 3 | 290 | 4 | 19.2 | 5.4 | 999 | 1011 | 26169 10393 32904 10192 20054 39987 40108 7//// 8//// | |||
| 2015-07-26T17:00 | 2 | 270 | 3 | 19.7 | 5.5 | 998 | 1010 | 26179 10393 22703 10197 20055 39980 40101 7//// 8//// | |||
| 2015-07-26T18:00 | 2 | 300 | 2 | 19.3 | 5.3 | 998 | 1010 | 26189 10393 23002 10193 20053 39978 40099 7//// 8//// | |||
| 2015-07-26T19:00 | 2 | 130 | 1 | 15.6 | 6.5 | 997 | 1010 | 26199 10393 21301 10156 20065 39974 40097 7//// 8//// | |||
| 2015-07-26T20:00 | 2 | 110 | 2 | 14.6 | 5.9 | 997 | 1009 | 26209 10393 21102 10146 20059 39971 40094 7//// 8//// | |||
| 2015-07-26T21:00 | 2 | 100 | 2 | 15.2 | 5.8 | 997 | 1009 | 26219 10393 21002 10152 20058 39967 40090 7//// 8//// | |||
| 2015-07-26T22:00 | 2 | 100 | 3 | 15.4 | 5.2 | 996 | 1008 | 26229 10393 21003 10154 20052 39962 40085 7//// 8//// | |||
| 2015-07-26T23:00 | 4 | 110 | 3 | 14.1 | 6.2 | 996 | 1008 | 26239 10393 41103 10141 20062 39956 40079 7//// 8//// | |||
| 2015-07-27T00:00 | 5 | 120 | 3 | 13.9 | 6.4 | 995 | 1008 | 27009 10393 51203 10139 20064 39952 40075 7//// 8//// | |||
| 2015-07-27T01:00 | 7 | 110 | 3 | 13.7 | 6.8 | 994 | 1007 | 27019 10393 71103 10137 20068 39943 40066 7//// 8//// | |||
| 2015-07-27T02:00 | 8 | 140 | 1 | 13.1 | 7.5 | 994 | 1006 | 60 | 2 | 2 | 27029 10393 81401 10131 20075 39939 40062 76022 8//// |
| 2015-07-27T03:00 | 8 | 150 | 1 | 12.9 | 9.0 | 993 | 1006 | 60 | 6 | 2 | 27039 10393 81501 10129 20090 39932 40055 76062 8//// |
| 2015-07-27T04:00 | 8 | 90 | 4 | 13.5 | 7.9 | 992 | 1005 | 21 | 6 | 6 | 27049 10393 80904 10135 20079 39923 40046 72166 8//// |
| 2015-07-27T05:00 | 8 | 90 | 4 | 12.7 | 8.2 | 992 | 1004 | 21 | 6 | 2 | 27059 10393 80904 10127 20082 39915 40038 72162 8//// |
| 2015-07-27T06:00 | 8 | 100 | 3 | 12.5 | 9.4 | 991 | 1003 | 21 | 6 | 2 | 27069 10393 81003 10125 20094 39910 40033 72162 8//// |
| 2015-07-27T07:00 | 8 | 160 | 2 | 14.2 | 9.9 | 991 | 1003 | 27079 10393 81602 10142 20099 39911 40033 7//// 8//// | |||
| 2015-07-27T08:00 | 8 | 180 | 3 | 16.3 | 11.2 | 991 | 1003 | 21 | 2 | 2 | 27089 10393 81803 10163 20112 39909 40030 72122 8//// |
| 2015-07-27T09:00 | 8 | 220 | 2 | 17.5 | 10.5 | 991 | 1003 | 60 | 6 | 2 | 27099 10393 82202 10175 20105 39907 40028 76062 8//// |
| 2015-07-27T10:00 | 7 | 230 | 4 | 18.1 | 10.3 | 990 | 1002 | 21 | 2 | 2 | 27109 10393 72304 10181 20103 39903 40024 72122 8//// |
| 2015-07-27T11:00 | 7 | 220 | 4 | 19.9 | 11.1 | 990 | 1002 | 21 | 2 | 2 | 27119 10393 72204 10199 20111 39899 40019 72122 8//// |
| 2015-07-27T12:00 | 7 | 220 | 4 | 20.7 | 11.6 | 990 | 1001 | 21 | 6 | 2 | 27129 10393 72204 10207 20116 39895 40014 72162 8//// |
| 2015-07-27T13:00 | 7 | 230 | 5 | 21.1 | 11.9 | 989 | 1001 | 21 | 2 | 2 | 27139 10393 72305 10211 20119 39890 40009 72122 8//// |
| 2015-07-27T14:00 | 7 | 230 | 4 | 20.8 | 12.4 | 989 | 1001 | 25 | 2 | 2 | 27149 10393 72304 10208 20124 39892 40011 72522 8//// |
| 2015-07-27T15:00 | 7 | 220 | 4 | 20.2 | 12.5 | 989 | 1001 | 25 | 8 | 6 | 27159 10393 72204 10202 20125 39891 40010 72586 8//// |
| 2015-07-27T16:00 | 7 | 230 | 8 | 18.6 | 13.4 | 990 | 1002 | 80 | 8 | 2 | 27169 10393 72308 10186 20134 39898 40018 78082 8//// |
| 2015-07-27T17:00 | 7 | 230 | 5 | 19.2 | 13.6 | 990 | 1002 | 25 | 8 | 8 | 27179 10393 72305 10192 20136 39897 40017 72588 8//// |
| 2015-07-27T18:00 | 6 | 240 | 7 | 17.7 | 13.4 | 990 | 1002 | 80 | 8 | 6 | 27189 10393 62407 10177 20134 39899 40020 78086 8//// |
| 2015-07-27T19:00 | 6 | 240 | 5 | 16.3 | 14.2 | 990 | 1003 | 25 | 2 | 2 | 27199 10393 62405 10163 20142 39905 40026 72522 8//// |
| 2015-07-27T20:00 | 7 | 240 | 5 | 16.1 | 14.4 | 991 | 1003 | 80 | 8 | 2 | 27209 10393 72405 10161 20144 39906 40027 78082 8//// |
| 2015-07-27T21:00 | 7 | 230 | 5 | 15.6 | 14.3 | 991 | 1003 | 25 | 8 | 2 | 27219 10393 72305 10156 20143 39908 40029 72582 8//// |
| 2015-07-27T22:00 | 8 | 230 | 6 | 14.8 | 14.1 | 991 | 1003 | 80 | 2 | 2 | 27229 10393 82306 10148 20141 39910 40032 78022 8//// |
| 2015-07-27T23:00 | 5 | 220 | 4 | 15.0 | 14.3 | 991 | 1003 | 25 | 8 | 8 | 27239 10393 52204 10150 20143 39908 40030 72588 8//// |
| 2015-07-28T00:00 | 5 | 220 | 4 | 14.7 | 13.7 | 991 | 1003 | 3 | 8 | 1 | 28009 10393 52204 10147 20137 39906 40028 70381 8//// |
| 2015-07-28T01:00 | 4 | 220 | 4 | 14.3 | 13.5 | 990 | 1003 | 28019 10393 42204 10143 20135 39905 40027 7//// 8//// | |||
| 2015-07-28T02:00 | 5 | 220 | 4 | 14.5 | 13.6 | 990 | 1003 | 25 | 1 | 1 | 28029 10393 52204 10145 20136 39904 40026 72511 8//// |
| 2015-07-28T03:00 | 2 | 220 | 4 | 14.1 | 13.0 | 990 | 1002 | 1 | 8 | 1 | 28039 10393 22204 10141 20130 39903 40025 70181 8//// |
| 2015-07-28T04:00 | 5 | 220 | 4 | 14.1 | 13.0 | 990 | 1003 | 28049 10393 52204 10141 20130 39904 40026 7//// 8//// | |||
| 2015-07-28T05:00 | 7 | 220 | 4 | 14.8 | 13.5 | 990 | 1002 | 80 | 2 | 2 | 28059 10393 72204 10148 20135 39903 40025 78022 8//// |
| 2015-07-28T06:00 | 5 | 220 | 5 | 15.5 | 14.1 | 991 | 1003 | 25 | 8 | 1 | 28069 10393 52205 10155 20141 39908 40030 72581 8//// |
| 2015-07-28T07:00 | 6 | 240 | 7 | 16.3 | 13.6 | 991 | 1003 | 28079 10393 62407 10163 20136 39908 40029 7//// 8//// | |||
| 2015-07-28T08:00 | 5 | 250 | 6 | 16.9 | 12.1 | 991 | 1003 | 28089 10393 52506 10169 20121 39909 40030 7//// 8//// | |||
| 2015-07-28T09:00 | 6 | 230 | 6 | 18.3 | 12.0 | 991 | 1003 | 28099 10393 62306 10183 20120 39912 40033 7//// 8//// | |||
| 2015-07-28T10:00 | 7 | 240 | 7 | 18.6 | 11.0 | 991 | 1003 | 28109 10393 72407 10186 20110 39914 40034 7//// 8//// | |||
| 2015-07-28T11:00 | 7 | 250 | 7 | 17.8 | 10.0 | 992 | 1004 | 28119 10393 72507 10178 20100 39917 40038 7//// 8//// | |||
| 2015-07-28T12:00 | 7 | 250 | 7 | 18.3 | 10.2 | 992 | 1004 | 28129 10393 72507 10183 20102 39919 40040 7//// 8//// | |||
| 2015-07-28T13:00 | 7 | 240 | 8 | 18.8 | 9.2 | 992 | 1004 | 28139 10393 72408 10188 20092 39921 40042 7//// 8//// | |||
| 2015-07-28T14:00 | 6 | 240 | 7 | 19.7 | 8.7 | 992 | 1004 | 28149 10393 62407 10197 20087 39922 40042 7//// 8//// | |||
| 2015-07-28T15:00 | 6 | 250 | 7 | 20.3 | 8.4 | 992 | 1004 | 28159 10393 62507 10203 20084 39921 40041 7//// 8//// | |||
| 2015-07-28T16:00 | 6 | 240 | 7 | 20.0 | 9.0 | 992 | 1004 | 28169 10393 62407 10200 20090 39924 40044 7//// 8//// | |||
| 2015-07-28T17:00 | 7 | 240 | 8 | 19.3 | 9.5 | 993 | 1005 | 28179 10393 72408 10193 20095 39927 40047 7//// 8//// | |||
| 2015-07-28T18:00 | 7 | 250 | 5 | 17.9 | 9.5 | 993 | 1005 | 28189 10393 72505 10179 20095 39931 40052 7//// 8//// | |||
| 2015-07-28T19:00 | 7 | 250 | 4 | 17.6 | 9.2 | 993 | 1005 | 28199 10393 72504 10176 20092 39932 40053 7//// 8//// | |||
| 2015-07-28T20:00 | 7 | 210 | 2 | 16.9 | 9.6 | 994 | 1006 | 28209 10393 72102 10169 20096 39935 40056 7//// 8//// | |||
| 2015-07-28T21:00 | 7 | 240 | 4 | 16.3 | 10.1 | 994 | 1006 | 28219 10393 72404 10163 20101 39937 40059 7//// 8//// | |||
| 2015-07-28T22:00 | 7 | 250 | 4 | 16.2 | 9.2 | 994 | 1006 | 28229 10393 72504 10162 20092 39940 40062 7//// 8//// | |||
| 2015-07-28T23:00 | 7 | 240 | 4 | 15.8 | 9.3 | 994 | 1007 | 28239 10393 72404 10158 20093 39944 40066 7//// 8//// | |||
| 2015-07-29T00:00 | 6 | 240 | 5 | 15.5 | 8.3 | 994 | 1007 | 29009 10393 62405 10155 20083 39944 40066 7//// 8//// | |||
| 2015-07-29T01:00 | 3 | 230 | 3 | 14.7 | 8.2 | 994 | 1007 | 29019 10393 32303 10147 20082 39945 40068 7//// 8//// | |||
| 2015-07-29T02:00 | 3 | 230 | 3 | 14.1 | 8.3 | 995 | 1007 | 29029 10393 32303 10141 20083 39946 40069 7//// 8//// | |||
| 2015-07-29T03:00 | 5 | 230 | 4 | 13.8 | 8.5 | 994 | 1007 | 29039 10393 52304 10138 20085 39944 40067 7//// 8//// | |||
| 2015-07-29T04:00 | 6 | 240 | 5 | 14.1 | 8.6 | 995 | 1007 | 29049 10393 62405 10141 20086 39948 40071 7//// 8//// | |||
| 2015-07-29T05:00 | 1 | 230 | 5 | 14.3 | 8.4 | 995 | 1007 | 29059 10393 12305 10143 20084 39949 40072 7//// 8//// | |||
| 2015-07-29T06:00 | 1 | 250 | 5 | 15.2 | 8.4 | 995 | 1007 | 29069 10393 12505 10152 20084 39947 40069 7//// 8//// | |||
| 2015-07-29T07:00 | 1 | 250 | 7 | 16.5 | 8.1 | 994 | 1007 | 29079 10393 12507 10165 20081 39945 40067 7//// 8//// | |||
| 2015-07-29T08:00 | 3 | 250 | 6 | 15.9 | 6.7 | 995 | 1007 | 29089 10393 32506 10159 20067 39946 40068 7//// 8//// | |||
| 2015-07-29T09:00 | 4 | 240 | 7 | 18.0 | 6.9 | 994 | 1006 | 29099 10393 42407 10180 20069 39943 40064 7//// 8//// | |||
| 2015-07-29T10:00 | 6 | 250 | 8 | 18.2 | 6.3 | 994 | 1006 | 29109 10393 62508 10182 20063 39939 40060 7//// 8//// | |||
| 2015-07-29T11:00 | 6 | 230 | 6 | 18.0 | 7.2 | 994 | 1006 | 29119 10393 62306 10180 20072 39936 40057 7//// 8//// | |||
| 2015-07-29T12:00 | 5 | 230 | 8 | 19.4 | 6.6 | 993 | 1005 | 29129 10393 52308 10194 20066 39931 40051 7//// 8//// | |||
| 2015-07-29T13:00 | 6 | 230 | 7 | 19.4 | 7.0 | 993 | 1005 | 29139 10393 62307 10194 20070 39931 40051 7//// 8//// | |||
| 2015-07-29T14:00 | 3 | 230 | 8 | 20.6 | 3.7 | 992 | 1004 | 29149 10393 32308 10206 20037 39925 40045 7//// 8//// | |||
| 2015-07-29T15:00 | 5 | 230 | 7 | 20.2 | 4.5 | 992 | 1004 | 29159 10393 52307 10202 20045 39925 40045 7//// 8//// | |||
| 2015-07-29T16:00 | 6 | 250 | 7 | 20.2 | 3.2 | 992 | 1004 | 29169 10393 62507 10202 20032 39925 40045 7//// 8//// | |||
| 2015-07-29T17:00 | 3 | 290 | 7 | 17.7 | 6.7 | 993 | 1005 | 29179 10393 32907 10177 20067 39931 40052 7//// 8//// | |||
| 2015-07-29T18:00 | 3 | 270 | 5 | 16.0 | 6.7 | 994 | 1006 | 29189 10393 32705 10160 20067 39939 40061 7//// 8//// | |||
| 2015-07-29T19:00 | 1 | 240 | 5 | 15.0 | 6.6 | 994 | 1006 | 29199 10393 12405 10150 20066 39943 40065 7//// 8//// | |||
| 2015-07-29T20:00 | 1 | 250 | 4 | 14.0 | 5.7 | 995 | 1007 | 29209 10393 12504 10140 20057 39950 40073 7//// 8//// | |||
| 2015-07-29T21:00 | 1 | 230 | 4 | 12.6 | 5.9 | 995 | 1008 | 29219 10393 12304 10126 20059 39953 40077 7//// 8//// | |||
| 2015-07-29T22:00 | 1 | 220 | 4 | 12.2 | 6.3 | 995 | 1008 | 29229 10393 12204 10122 20063 39953 40077 7//// 8//// | |||
| 2015-07-29T23:00 | 2 | 230 | 5 | 11.7 | 6.6 | 996 | 1008 | 29239 10393 22305 10117 20066 39956 40080 7//// 8//// | |||
| 2015-07-30T00:00 | 5 | 220 | 5 | 12.0 | 7.7 | 995 | 1008 | 30009 10393 52205 10120 20077 39954 40078 7//// 8//// | |||
| 2015-07-30T01:00 | 7 | 230 | 7 | 12.9 | 7.6 | 996 | 1008 | 30019 10393 72307 10129 20076 39955 40078 7//// 8//// | |||
| 2015-07-30T02:00 | 8 | 240 | 6 | 13.5 | 7.4 | 996 | 1008 | 30029 10393 82406 10135 20074 39956 40079 7//// 8//// | |||
| 2015-07-30T03:00 | 7 | 240 | 7 | 13.9 | 7.5 | 996 | 1008 | 30039 10393 72407 10139 20075 39957 40080 7//// 8//// | |||
| 2015-07-30T04:00 | 3 | 240 | 6 | 13.2 | 7.5 | 996 | 1008 | 30049 10393 32406 10132 20075 39959 40082 7//// 8//// | |||
| 2015-07-30T05:00 | 6 | 240 | 6 | 12.8 | 7.7 | 996 | 1009 | 30059 10393 62406 10128 20077 39962 40086 7//// 8//// | |||
| 2015-07-30T06:00 | 6 | 240 | 7 | 13.5 | 7.8 | 997 | 1009 | 30069 10393 62407 10135 20078 39967 40090 7//// 8//// | |||
| 2015-07-30T07:00 | 7 | 240 | 8 | 13.6 | 7.6 | 997 | 1010 | 30079 10393 72408 10136 20076 39972 40095 7//// 8//// | |||
| 2015-07-30T08:00 | 7 | 250 | 8 | 15.5 | 8.3 | 997 | 1010 | 30089 10393 72508 10155 20083 39974 40097 7//// 8//// | |||
| 2015-07-30T09:00 | 7 | 250 | 9 | 15.2 | 8.0 | 998 | 1010 | 30099 10393 72509 10152 20080 39979 40102 7//// 8//// | |||
| 2015-07-30T10:00 | 7 | 240 | 9 | 16.1 | 8.4 | 998 | 1010 | 30109 10393 72409 10161 20084 39983 40105 7//// 8//// | |||
| 2015-07-30T11:00 | 7 | 260 | 9 | 17.0 | 7.7 | 998 | 1010 | 30119 10393 72609 10170 20077 39983 40105 7//// 8//// | |||
| 2015-07-30T12:00 | 6 | 260 | 7 | 17.4 | 7.4 | 999 | 1011 | 30129 10393 62607 10174 20074 39987 40109 7//// 8//// | |||
| 2015-07-30T13:00 | 6 | 260 | 6 | 17.8 | 7.0 | 999 | 1011 | 30139 10393 62606 10178 20070 39990 40112 7//// 8//// | |||
| 2015-07-30T14:00 | 5 | 270 | 8 | 18.6 | 6.7 | 999 | 1011 | 30149 10393 52708 10186 20067 39991 40113 7//// 8//// | |||
| 2015-07-30T15:00 | 5 | 260 | 7 | 19.6 | 5.8 | 999 | 1011 | 30159 10393 52607 10196 20058 39991 40112 7//// 8//// | |||
| 2015-07-30T16:00 | 5 | 250 | 7 | 19.3 | 5.7 | 999 | 1011 | 30169 10393 52507 10193 20057 39991 40112 7//// 8//// | |||
| 2015-07-30T17:00 | 5 | 290 | 4 | 18.9 | 5.9 | 999 | 1011 | 30179 10393 52904 10189 20059 39993 40114 7//// 8//// | |||
| 2015-07-30T18:00 | 4 | 280 | 4 | 18.0 | 6.2 | 1000 | 1012 | 30189 10393 42804 10180 20062 39996 40118 7//// 8//// | |||
| 2015-07-30T19:00 | 6 | 270 | 4 | 17.5 | 6.9 | 1000 | 1012 | 30199 10393 62704 10175 20069 30002 40124 7//// 8//// | |||
| 2015-07-30T20:00 | 4 | 290 | 5 | 15.5 | 8.7 | 1001 | 1014 | 30209 10393 42905 10155 20087 30013 40136 7//// 8//// | |||
| 2015-07-30T21:00 | 2 | 280 | 3 | 14.1 | 9.1 | 1002 | 1014 | 30219 10393 22803 10141 20091 30016 40140 7//// 8//// | |||
| 2015-07-30T22:00 | 0 | 280 | 3 | 13.4 | 8.4 | 1002 | 1014 | 30229 10393 02803 10134 20084 30020 40144 7//// 8//// | |||
| 2015-07-30T23:00 | 3 | 280 | 4 | 12.7 | 8.2 | 1002 | 1015 | 30239 10393 32804 10127 20082 30024 40148 7//// 8//// | |||
| 2015-07-31T00:00 | 1 | 270 | 4 | 12.1 | 8.0 | 1003 | 1015 | 31009 10393 12704 10121 20080 30027 40152 7//// 8//// | |||
| 2015-07-31T01:00 | 0 | 260 | 4 | 11.5 | 7.9 | 1003 | 1016 | 31019 10393 02604 10115 20079 30030 40155 7//// 8//// | |||
| 2015-07-31T02:00 | 0 | 270 | 5 | 11.1 | 7.7 | 1003 | 1016 | 31029 10393 02705 10111 20077 30032 40157 7//// 8//// | |||
| 2015-07-31T03:00 | 1 | 270 | 5 | 10.7 | 7.6 | 1004 | 1016 | 31039 10393 12705 10107 20076 30036 40161 7//// 8//// | |||
| 2015-07-31T04:00 | 1 | 270 | 4 | 10.3 | 7.6 | 1004 | 1016 | 31049 10393 12704 10103 20076 30039 40165 7//// 8//// | |||
| 2015-07-31T05:00 | 4 | 270 | 5 | 10.8 | 8.0 | 1004 | 1017 | 31059 10393 42705 10108 20080 30045 40171 7//// 8//// | |||
| 2015-07-31T06:00 | 4 | 270 | 4 | 11.9 | 8.5 | 1005 | 1018 | 31069 10393 42704 10119 20085 30050 40175 7//// 8//// | |||
| 2015-07-31T07:00 | 4 | 270 | 5 | 13.1 | 8.7 | 1006 | 1018 | 31079 10393 42705 10131 20087 30056 40181 7//// 8//// | |||
| 2015-07-31T08:00 | 4 | 270 | 5 | 14.2 | 7.5 | 1006 | 1018 | 31089 10393 42705 10142 20075 30058 40182 7//// 8//// | |||
| 2015-07-31T09:00 | 5 | 280 | 5 | 16.0 | 7.1 | 1006 | 1018 | 31099 10393 52805 10160 20071 30060 40183 7//// 8//// | |||
| 2015-07-31T10:00 | 6 | 270 | 6 | 16.2 | 6.1 | 1006 | 1018 | 31109 10393 62706 10162 20061 30060 40183 7//// 8//// | |||
| 2015-07-31T11:00 | 6 | 280 | 5 | 17.2 | 4.6 | 1006 | 1018 | 31119 10393 62805 10172 20046 30061 40184 7//// 8//// | |||
| 2015-07-31T12:00 | 7 | 300 | 4 | 16.8 | 5.7 | 1006 | 1019 | 31129 10393 73004 10168 20057 30063 40186 7//// 8//// | |||
| 2015-07-31T13:00 | 5 | 290 | 5 | 17.7 | 5.9 | 1006 | 1018 | 31139 10393 52905 10177 20059 30061 40184 7//// 8//// | |||
| 2015-07-31T14:00 | 6 | 270 | 4 | 18.1 | 5.1 | 1006 | 1018 | 31149 10393 62704 10181 20051 30062 40185 7//// 8//// | |||
| 2015-07-31T15:00 | 5 | 290 | 5 | 18.2 | 5.5 | 1006 | 1018 | 31159 10393 52905 10182 20055 30058 40181 7//// 8//// | |||
| 2015-07-31T16:00 | 5 | 270 | 3 | 18.2 | 5.2 | 1006 | 1018 | 31169 10393 52703 10182 20052 30056 40179 7//// 8//// | |||
| 2015-07-31T17:00 | 5 | 300 | 2 | 17.6 | 4.7 | 1006 | 1018 | 31179 10393 53002 10176 20047 30056 40179 7//// 8//// | |||
| 2015-07-31T18:00 | 3 | 310 | 2 | 17.7 | 6.2 | 1006 | 1018 | 31189 10393 33102 10177 20062 30058 40181 7//// 8//// | |||
| 2015-07-31T19:00 | 5 | 310 | 1 | 14.3 | 6.9 | 1006 | 1018 | 31199 10393 53101 10143 20069 30061 40185 7//// 8//// | |||
| 2015-07-31T20:00 | 3 | 40 | 2 | 12.8 | 6.5 | 1006 | 1019 | 31209 10393 30402 10128 20065 30062 40187 7//// 8//// | |||
| 2015-07-31T21:00 | 1 | 40 | 2 | 12.1 | 6.5 | 1006 | 1019 | 31219 10393 10402 10121 20065 30062 40187 7//// 8//// | |||
| 2015-07-31T22:00 | 0 | 90 | 3 | 12.6 | 6.4 | 1006 | 1019 | 31229 10393 00903 10126 20064 30063 40188 7//// 8//// | |||
| 2015-07-31T23:00 | 2 | 100 | 3 | 13.2 | 6.1 | 1007 | 1019 | 31239 10393 21003 10132 20061 30066 40191 7//// 8//// |
